<?xml version="1.0" encoding="UTF-8" standalone="no" ?>
<gpx xmlns="http://www.topografix.com/GPX/1/1" xmlns:xsi="http://www.w3.org/2001/XMLSchema-instance" xsi:schemaLocation="http://www.topografix.com/GPX/1/1 http://www.topografix.com/GPX/1/1/gpx.xsd" version="1.1" creator="VisuGPX - https://www.visugpx.com">
  <metadata>
    <name>v63 test</name>
  </metadata>
  <trk>
    <name><![CDATA[v63 test_1]]></name>
    <trkseg>
      <trkpt lat="45.21236" lon="5.40666">
        <ele>275.3</ele>
      </trkpt>
      <trkpt lat="45.21176" lon="5.40725">
        <ele>273</ele>
      </trkpt>
      <trkpt lat="45.2106" lon="5.4037">
        <ele>281.3</ele>
      </trkpt>
      <trkpt lat="45.20899" lon="5.40036">
        <ele>277.6</ele>
      </trkpt>
      <trkpt lat="45.20648" lon="5.39951">
        <ele>273.5</ele>
      </trkpt>
      <trkpt lat="45.20397" lon="5.40237">
        <ele>265.3</ele>
      </trkpt>
      <trkpt lat="45.19532" lon="5.39692">
        <ele>254</ele>
      </trkpt>
      <trkpt lat="45.19254" lon="5.3914">
        <ele>259.9</ele>
      </trkpt>
      <trkpt lat="45.18713" lon="5.38704">
        <ele>245.4</ele>
      </trkpt>
      <trkpt lat="45.18281" lon="5.38439">
        <ele>247.3</ele>
      </trkpt>
      <trkpt lat="45.17853" lon="5.38455">
        <ele>232.1</ele>
      </trkpt>
      <trkpt lat="45.17562" lon="5.38413">
        <ele>230.5</ele>
      </trkpt>
      <trkpt lat="45.17358" lon="5.38249">
        <ele>240.2</ele>
      </trkpt>
      <trkpt lat="45.17083" lon="5.38265">
        <ele>215.4</ele>
      </trkpt>
      <trkpt lat="45.1698" lon="5.38136">
        <ele>214.1</ele>
      </trkpt>
      <trkpt lat="45.16921" lon="5.37956">
        <ele>227.1</ele>
      </trkpt>
      <trkpt lat="45.16646" lon="5.37567">
        <ele>218.7</ele>
      </trkpt>
      <trkpt lat="45.16356" lon="5.37055">
        <ele>217.8</ele>
      </trkpt>
      <trkpt lat="45.15679" lon="5.36329">
        <ele>217.8</ele>
      </trkpt>
      <trkpt lat="45.15472" lon="5.36096">
        <ele>227</ele>
        <time>2017-02-27T16:12:54Z</time>
      </trkpt>
      <trkpt lat="45.15472" lon="5.36096">
        <ele>227</ele>
        <time>2017-02-27T16:12:54Z</time>
      </trkpt>
      <trkpt lat="45.1541" lon="5.36026">
        <ele>231</ele>
        <time>2017-02-27T16:14:54Z</time>
      </trkpt>
      <trkpt lat="45.1536" lon="5.35971">
        <ele>232</ele>
        <time>2017-02-27T16:16:54Z</time>
      </trkpt>
      <trkpt lat="45.15309" lon="5.35912">
        <ele>237</ele>
        <time>2017-02-27T16:18:54Z</time>
      </trkpt>
      <trkpt lat="45.15269" lon="5.3589">
        <ele>236</ele>
        <time>2017-02-27T16:20:54Z</time>
      </trkpt>
      <trkpt lat="45.15204" lon="5.35851">
        <ele>238</ele>
        <time>2017-02-27T16:22:54Z</time>
      </trkpt>
      <trkpt lat="45.15173" lon="5.35832">
        <ele>239</ele>
        <time>2017-02-27T16:24:54Z</time>
      </trkpt>
      <trkpt lat="45.15161" lon="5.35814">
        <ele>240</ele>
        <time>2017-02-27T16:26:54Z</time>
      </trkpt>
      <trkpt lat="45.15156" lon="5.35783">
        <ele>245</ele>
        <time>2017-02-27T16:28:54Z</time>
      </trkpt>
      <trkpt lat="45.15166" lon="5.35743">
        <ele>249</ele>
        <time>2017-02-27T16:30:54Z</time>
      </trkpt>
      <trkpt lat="45.15179" lon="5.357">
        <ele>250</ele>
        <time>2017-02-27T16:32:54Z</time>
      </trkpt>
      <trkpt lat="45.15144" lon="5.35691">
        <ele>249</ele>
        <time>2017-02-27T16:34:54Z</time>
      </trkpt>
      <trkpt lat="45.15096" lon="5.35651">
        <ele>249</ele>
        <time>2017-02-27T16:36:54Z</time>
      </trkpt>
      <trkpt lat="45.15022" lon="5.35587">
        <ele>249</ele>
        <time>2017-02-27T16:38:54Z</time>
      </trkpt>
      <trkpt lat="45.14951" lon="5.35528">
        <ele>250</ele>
        <time>2017-02-27T16:40:54Z</time>
      </trkpt>
      <trkpt lat="45.14907" lon="5.35478">
        <ele>252</ele>
        <time>2017-02-27T16:42:54Z</time>
      </trkpt>
      <trkpt lat="45.14821" lon="5.35404">
        <ele>250</ele>
        <time>2017-02-27T16:44:54Z</time>
      </trkpt>
      <trkpt lat="45.14784" lon="5.35371">
        <ele>249</ele>
        <time>2017-02-27T16:46:54Z</time>
      </trkpt>
      <trkpt lat="45.14743" lon="5.35308">
        <ele>249</ele>
        <time>2017-02-27T16:48:54Z</time>
      </trkpt>
      <trkpt lat="45.14702" lon="5.35261">
        <ele>249</ele>
        <time>2017-02-27T16:50:54Z</time>
      </trkpt>
      <trkpt lat="45.14622" lon="5.35178">
        <ele>249</ele>
        <time>2017-02-27T16:52:54Z</time>
      </trkpt>
      <trkpt lat="45.14504" lon="5.35051">
        <ele>250</ele>
        <time>2017-02-27T16:54:54Z</time>
      </trkpt>
      <trkpt lat="45.1439" lon="5.34915">
        <ele>248</ele>
        <time>2017-02-27T16:56:54Z</time>
      </trkpt>
      <trkpt lat="45.14316" lon="5.34833">
        <ele>248</ele>
        <time>2017-02-27T16:58:54Z</time>
      </trkpt>
      <trkpt lat="45.14275" lon="5.34781">
        <ele>247</ele>
        <time>2017-02-27T17:00:54Z</time>
      </trkpt>
      <trkpt lat="45.14208" lon="5.34732">
        <ele>247</ele>
        <time>2017-02-27T17:02:54Z</time>
      </trkpt>
      <trkpt lat="45.14123" lon="5.34675">
        <ele>246</ele>
        <time>2017-02-27T17:04:54Z</time>
      </trkpt>
      <trkpt lat="45.14078" lon="5.34613">
        <ele>246</ele>
        <time>2017-02-27T17:06:54Z</time>
      </trkpt>
      <trkpt lat="45.14046" lon="5.3455">
        <ele>246</ele>
        <time>2017-02-27T17:08:54Z</time>
      </trkpt>
      <trkpt lat="45.14015" lon="5.34471">
        <ele>245</ele>
        <time>2017-02-27T17:10:54Z</time>
      </trkpt>
      <trkpt lat="45.13978" lon="5.34472">
        <ele>244</ele>
        <time>2017-02-27T17:12:54Z</time>
      </trkpt>
      <trkpt lat="45.13924" lon="5.34485">
        <ele>243</ele>
        <time>2017-02-27T17:14:54Z</time>
      </trkpt>
      <trkpt lat="45.1389" lon="5.34478">
        <ele>243</ele>
        <time>2017-02-27T17:16:54Z</time>
      </trkpt>
      <trkpt lat="45.13857" lon="5.34425">
        <ele>243</ele>
        <time>2017-02-27T17:18:54Z</time>
      </trkpt>
      <trkpt lat="45.13794" lon="5.34341">
        <ele>242</ele>
        <time>2017-02-27T17:20:54Z</time>
      </trkpt>
      <trkpt lat="45.13769" lon="5.34297">
        <ele>241</ele>
        <time>2017-02-27T17:22:54Z</time>
      </trkpt>
      <trkpt lat="45.13723" lon="5.34177">
        <ele>240</ele>
        <time>2017-02-27T17:24:54Z</time>
      </trkpt>
      <trkpt lat="45.13697" lon="5.34119">
        <ele>239</ele>
        <time>2017-02-27T17:26:54Z</time>
      </trkpt>
      <trkpt lat="45.13649" lon="5.34053">
        <ele>238</ele>
        <time>2017-02-27T17:28:54Z</time>
      </trkpt>
      <trkpt lat="45.13601" lon="5.3397">
        <ele>238</ele>
        <time>2017-02-27T17:30:54Z</time>
      </trkpt>
      <trkpt lat="45.13562" lon="5.33909">
        <ele>238</ele>
        <time>2017-02-27T17:32:54Z</time>
      </trkpt>
      <trkpt lat="45.13513" lon="5.33848">
        <ele>237</ele>
        <time>2017-02-27T17:34:54Z</time>
      </trkpt>
      <trkpt lat="45.13434" lon="5.33775">
        <ele>235</ele>
        <time>2017-02-27T17:36:54Z</time>
      </trkpt>
      <trkpt lat="45.13407" lon="5.3377">
        <ele>235</ele>
        <time>2017-02-27T17:38:54Z</time>
      </trkpt>
      <trkpt lat="45.13351" lon="5.33771">
        <ele>233</ele>
        <time>2017-02-27T17:40:54Z</time>
      </trkpt>
      <trkpt lat="45.13308" lon="5.3379">
        <ele>230</ele>
        <time>2017-02-27T17:42:54Z</time>
      </trkpt>
      <trkpt lat="45.13278" lon="5.33789">
        <ele>227</ele>
        <time>2017-02-27T17:44:54Z</time>
      </trkpt>
      <trkpt lat="45.1325" lon="5.33761">
        <ele>224</ele>
        <time>2017-02-27T17:46:54Z</time>
      </trkpt>
      <trkpt lat="45.13202" lon="5.33687">
        <ele>226</ele>
        <time>2017-02-27T17:48:54Z</time>
      </trkpt>
      <trkpt lat="45.13163" lon="5.33638">
        <ele>224</ele>
        <time>2017-02-27T17:50:54Z</time>
      </trkpt>
      <trkpt lat="45.13115" lon="5.33598">
        <ele>224</ele>
        <time>2017-02-27T17:52:54Z</time>
      </trkpt>
      <trkpt lat="45.13067" lon="5.33582">
        <ele>223</ele>
        <time>2017-02-27T17:54:54Z</time>
      </trkpt>
      <trkpt lat="45.13025" lon="5.33561">
        <ele>222</ele>
        <time>2017-02-27T17:56:54Z</time>
      </trkpt>
      <trkpt lat="45.12941" lon="5.33564">
        <ele>222</ele>
        <time>2017-02-27T17:58:54Z</time>
      </trkpt>
      <trkpt lat="45.12891" lon="5.3357">
        <ele>216</ele>
        <time>2017-02-27T18:00:54Z</time>
      </trkpt>
      <trkpt lat="45.12877" lon="5.33566">
        <ele>212</ele>
        <time>2017-02-27T18:02:54Z</time>
      </trkpt>
      <trkpt lat="45.12864" lon="5.33554">
        <ele>210</ele>
        <time>2017-02-27T18:04:54Z</time>
      </trkpt>
      <trkpt lat="45.12849" lon="5.33519">
        <ele>208</ele>
        <time>2017-02-27T18:06:54Z</time>
      </trkpt>
      <trkpt lat="45.12831" lon="5.33468">
        <ele>209</ele>
        <time>2017-02-27T18:08:54Z</time>
      </trkpt>
      <trkpt lat="45.1281" lon="5.33412">
        <ele>210</ele>
        <time>2017-02-27T18:10:54Z</time>
      </trkpt>
      <trkpt lat="45.12764" lon="5.33374">
        <ele>205</ele>
        <time>2017-02-27T18:12:54Z</time>
      </trkpt>
      <trkpt lat="45.12689" lon="5.33311">
        <ele>194</ele>
        <time>2017-02-27T18:14:54Z</time>
      </trkpt>
      <trkpt lat="45.1267" lon="5.33289">
        <ele>192</ele>
        <time>2017-02-27T18:16:54Z</time>
      </trkpt>
      <trkpt lat="45.12637" lon="5.33217">
        <ele>195</ele>
        <time>2017-02-27T18:18:54Z</time>
      </trkpt>
      <trkpt lat="45.12606" lon="5.33142">
        <ele>193</ele>
        <time>2017-02-27T18:20:54Z</time>
      </trkpt>
      <trkpt lat="45.12586" lon="5.33069">
        <ele>188</ele>
        <time>2017-02-27T18:22:54Z</time>
      </trkpt>
      <trkpt lat="45.12571" lon="5.32982">
        <ele>191</ele>
        <time>2017-02-27T18:24:54Z</time>
      </trkpt>
      <trkpt lat="45.12563" lon="5.32949">
        <ele>196</ele>
        <time>2017-02-27T18:26:54Z</time>
      </trkpt>
      <trkpt lat="45.12566" lon="5.32914">
        <ele>202</ele>
        <time>2017-02-27T18:28:54Z</time>
      </trkpt>
      <trkpt lat="45.12556" lon="5.32862">
        <ele>202</ele>
        <time>2017-02-27T18:30:54Z</time>
      </trkpt>
      <trkpt lat="45.1253" lon="5.32778">
        <ele>198</ele>
        <time>2017-02-27T18:32:54Z</time>
      </trkpt>
      <trkpt lat="45.12498" lon="5.32681">
        <ele>193</ele>
        <time>2017-02-27T18:34:54Z</time>
      </trkpt>
      <trkpt lat="45.1246" lon="5.32552">
        <ele>192</ele>
        <time>2017-02-27T18:36:54Z</time>
      </trkpt>
      <trkpt lat="45.1242" lon="5.32415">
        <ele>186</ele>
        <time>2017-02-27T18:38:54Z</time>
      </trkpt>
      <trkpt lat="45.12413" lon="5.32361">
        <ele>181</ele>
        <time>2017-02-27T18:40:54Z</time>
      </trkpt>
      <trkpt lat="45.12418" lon="5.3232">
        <ele>181</ele>
        <time>2017-02-27T18:42:54Z</time>
      </trkpt>
      <trkpt lat="45.12435" lon="5.32284">
        <ele>184</ele>
        <time>2017-02-27T18:44:54Z</time>
      </trkpt>
      <trkpt lat="45.1245" lon="5.32262">
        <ele>186</ele>
        <time>2017-02-27T18:46:54Z</time>
      </trkpt>
      <trkpt lat="45.12431" lon="5.32225">
        <ele>189</ele>
        <time>2017-02-27T18:48:54Z</time>
      </trkpt>
      <trkpt lat="45.12404" lon="5.32202">
        <ele>190</ele>
        <time>2017-02-27T18:50:54Z</time>
      </trkpt>
      <trkpt lat="45.12384" lon="5.32173">
        <ele>191</ele>
        <time>2017-02-27T18:52:54Z</time>
      </trkpt>
      <trkpt lat="45.12373" lon="5.32138">
        <ele>194</ele>
        <time>2017-02-27T18:54:54Z</time>
      </trkpt>
      <trkpt lat="45.12357" lon="5.32049">
        <ele>200</ele>
        <time>2017-02-27T18:56:54Z</time>
      </trkpt>
      <trkpt lat="45.12334" lon="5.31982">
        <ele>198</ele>
        <time>2017-02-27T18:58:54Z</time>
      </trkpt>
      <trkpt lat="45.1231" lon="5.31898">
        <ele>201</ele>
        <time>2017-02-27T19:00:54Z</time>
      </trkpt>
      <trkpt lat="45.12295" lon="5.31829">
        <ele>203</ele>
        <time>2017-02-27T19:02:54Z</time>
      </trkpt>
      <trkpt lat="45.12274" lon="5.31742">
        <ele>201</ele>
        <time>2017-02-27T19:04:54Z</time>
      </trkpt>
      <trkpt lat="45.12263" lon="5.31685">
        <ele>203</ele>
        <time>2017-02-27T19:06:54Z</time>
      </trkpt>
      <trkpt lat="45.12266" lon="5.31636">
        <ele>207</ele>
        <time>2017-02-27T19:08:54Z</time>
      </trkpt>
      <trkpt lat="45.1227" lon="5.31599">
        <ele>209</ele>
        <time>2017-02-27T19:10:54Z</time>
      </trkpt>
      <trkpt lat="45.1226" lon="5.31532">
        <ele>210</ele>
        <time>2017-02-27T19:12:54Z</time>
      </trkpt>
      <trkpt lat="45.12247" lon="5.31449">
        <ele>211</ele>
        <time>2017-02-27T19:14:54Z</time>
      </trkpt>
      <trkpt lat="45.12244" lon="5.31326">
        <ele>219</ele>
        <time>2017-02-27T19:16:54Z</time>
      </trkpt>
      <trkpt lat="45.12229" lon="5.31199">
        <ele>225</ele>
        <time>2017-02-27T19:18:54Z</time>
      </trkpt>
      <trkpt lat="45.12217" lon="5.31125">
        <ele>228</ele>
        <time>2017-02-27T19:20:54Z</time>
      </trkpt>
      <trkpt lat="45.12196" lon="5.31014">
        <ele>235</ele>
        <time>2017-02-27T19:22:54Z</time>
      </trkpt>
      <trkpt lat="45.1216" lon="5.30931">
        <ele>231</ele>
        <time>2017-02-27T19:24:54Z</time>
      </trkpt>
      <trkpt lat="45.12135" lon="5.30857">
        <ele>230</ele>
        <time>2017-02-27T19:26:54Z</time>
      </trkpt>
      <trkpt lat="45.12113" lon="5.30796">
        <ele>227</ele>
        <time>2017-02-27T19:28:54Z</time>
      </trkpt>
      <trkpt lat="45.12077" lon="5.30702">
        <ele>221</ele>
        <time>2017-02-27T19:30:54Z</time>
      </trkpt>
      <trkpt lat="45.1205" lon="5.30625">
        <ele>221</ele>
        <time>2017-02-27T19:32:54Z</time>
      </trkpt>
      <trkpt lat="45.1203" lon="5.30564">
        <ele>221</ele>
        <time>2017-02-27T19:34:54Z</time>
      </trkpt>
      <trkpt lat="45.12005" lon="5.30484">
        <ele>218</ele>
        <time>2017-02-27T19:36:54Z</time>
      </trkpt>
      <trkpt lat="45.12002" lon="5.30444">
        <ele>219</ele>
        <time>2017-02-27T19:38:54Z</time>
      </trkpt>
      <trkpt lat="45.1196" lon="5.30362">
        <ele>217</ele>
        <time>2017-02-27T19:40:54Z</time>
      </trkpt>
      <trkpt lat="45.11919" lon="5.30278">
        <ele>211</ele>
        <time>2017-02-27T19:42:54Z</time>
      </trkpt>
      <trkpt lat="45.11866" lon="5.30182">
        <ele>209</ele>
        <time>2017-02-27T19:44:54Z</time>
      </trkpt>
      <trkpt lat="45.11845" lon="5.30122">
        <ele>208</ele>
        <time>2017-02-27T19:46:54Z</time>
      </trkpt>
      <trkpt lat="45.11821" lon="5.30011">
        <ele>202</ele>
        <time>2017-02-27T19:48:54Z</time>
      </trkpt>
      <trkpt lat="45.11821" lon="5.29876">
        <ele>208</ele>
        <time>2017-02-27T19:50:54Z</time>
      </trkpt>
      <trkpt lat="45.1181" lon="5.29753">
        <ele>206</ele>
        <time>2017-02-27T19:52:54Z</time>
      </trkpt>
      <trkpt lat="45.11791" lon="5.29652">
        <ele>204</ele>
        <time>2017-02-27T19:54:54Z</time>
      </trkpt>
      <trkpt lat="45.11764" lon="5.2954">
        <ele>204</ele>
        <time>2017-02-27T19:56:54Z</time>
      </trkpt>
      <trkpt lat="45.11746" lon="5.29457">
        <ele>202</ele>
        <time>2017-02-27T19:58:54Z</time>
      </trkpt>
      <trkpt lat="45.11715" lon="5.29372">
        <ele>201</ele>
        <time>2017-02-27T20:00:54Z</time>
      </trkpt>
      <trkpt lat="45.11706" lon="5.29293">
        <ele>209</ele>
        <time>2017-02-27T20:02:54Z</time>
      </trkpt>
      <trkpt lat="45.11703" lon="5.29219">
        <ele>217</ele>
        <time>2017-02-27T20:04:54Z</time>
      </trkpt>
      <trkpt lat="45.11677" lon="5.29087">
        <ele>216</ele>
        <time>2017-02-27T20:06:54Z</time>
      </trkpt>
      <trkpt lat="45.11646" lon="5.28956">
        <ele>220</ele>
        <time>2017-02-27T20:08:54Z</time>
      </trkpt>
      <trkpt lat="45.11574" lon="5.2868">
        <ele>219</ele>
        <time>2017-02-27T20:10:54Z</time>
      </trkpt>
      <trkpt lat="45.11565" lon="5.28637">
        <ele>221</ele>
        <time>2017-02-27T20:12:54Z</time>
      </trkpt>
      <trkpt lat="45.11535" lon="5.28554">
        <ele>217</ele>
        <time>2017-02-27T20:14:54Z</time>
      </trkpt>
      <trkpt lat="45.1152" lon="5.28503">
        <ele>214</ele>
        <time>2017-02-27T20:16:54Z</time>
      </trkpt>
      <trkpt lat="45.11499" lon="5.28458">
        <ele>211</ele>
        <time>2017-02-27T20:18:54Z</time>
      </trkpt>
      <trkpt lat="45.1147" lon="5.28417">
        <ele>210</ele>
        <time>2017-02-27T20:20:54Z</time>
      </trkpt>
      <trkpt lat="45.11468" lon="5.28395">
        <ele>214</ele>
        <time>2017-02-27T20:22:54Z</time>
      </trkpt>
      <trkpt lat="45.11455" lon="5.28374">
        <ele>214</ele>
        <time>2017-02-27T20:24:54Z</time>
      </trkpt>
      <trkpt lat="45.11434" lon="5.28318">
        <ele>215</ele>
        <time>2017-02-27T20:26:54Z</time>
      </trkpt>
      <trkpt lat="45.11385" lon="5.28196">
        <ele>210</ele>
        <time>2017-02-27T20:28:54Z</time>
      </trkpt>
      <trkpt lat="45.11385" lon="5.28171">
        <ele>212</ele>
        <time>2017-02-27T20:30:54Z</time>
      </trkpt>
      <trkpt lat="45.11295" lon="5.27961">
        <ele>205</ele>
        <time>2017-02-27T20:32:54Z</time>
      </trkpt>
      <trkpt lat="45.11271" lon="5.27914">
        <ele>203</ele>
        <time>2017-02-27T20:34:54Z</time>
      </trkpt>
      <trkpt lat="45.11228" lon="5.27893">
        <ele>195</ele>
        <time>2017-02-27T20:36:54Z</time>
      </trkpt>
      <trkpt lat="45.1118" lon="5.2788">
        <ele>190</ele>
        <time>2017-02-27T20:38:54Z</time>
      </trkpt>
      <trkpt lat="45.11179" lon="5.27897">
        <ele>188</ele>
        <time>2017-02-27T20:40:54Z</time>
      </trkpt>
      <trkpt lat="45.11173" lon="5.27919">
        <ele>185</ele>
        <time>2017-02-27T20:42:54Z</time>
      </trkpt>
      <trkpt lat="45.1115" lon="5.27917">
        <ele>183</ele>
        <time>2017-02-27T20:44:54Z</time>
      </trkpt>
      <trkpt lat="45.11135" lon="5.27907">
        <ele>182</ele>
        <time>2017-02-27T20:46:54Z</time>
      </trkpt>
      <trkpt lat="45.11118" lon="5.27884">
        <ele>182</ele>
        <time>2017-02-27T20:48:54Z</time>
      </trkpt>
      <trkpt lat="45.11097" lon="5.27858">
        <ele>181</ele>
        <time>2017-02-27T20:50:54Z</time>
      </trkpt>
      <trkpt lat="45.11076" lon="5.27826">
        <ele>180</ele>
        <time>2017-02-27T20:52:54Z</time>
      </trkpt>
      <trkpt lat="45.11062" lon="5.27768">
        <ele>181</ele>
        <time>2017-02-27T20:54:54Z</time>
      </trkpt>
      <trkpt lat="45.11034" lon="5.27713">
        <ele>179</ele>
        <time>2017-02-27T20:56:54Z</time>
      </trkpt>
      <trkpt lat="45.11015" lon="5.27679">
        <ele>181</ele>
        <time>2017-02-27T20:58:54Z</time>
      </trkpt>
      <trkpt lat="45.10997" lon="5.27651">
        <ele>180</ele>
        <time>2017-02-27T21:00:54Z</time>
      </trkpt>
      <trkpt lat="45.10987" lon="5.27648">
        <ele>178</ele>
        <time>2017-02-27T21:02:54Z</time>
      </trkpt>
      <trkpt lat="45.10959" lon="5.2755">
        <ele>174</ele>
        <time>2017-02-27T21:04:54Z</time>
      </trkpt>
      <trkpt lat="45.10934" lon="5.27457">
        <ele>182</ele>
        <time>2017-02-27T21:06:54Z</time>
      </trkpt>
      <trkpt lat="45.1089" lon="5.27364">
        <ele>188</ele>
        <time>2017-02-27T21:08:54Z</time>
      </trkpt>
      <trkpt lat="45.10836" lon="5.27288">
        <ele>186</ele>
        <time>2017-02-27T21:10:54Z</time>
      </trkpt>
      <trkpt lat="45.10763" lon="5.27214">
        <ele>188</ele>
        <time>2017-02-27T21:12:54Z</time>
      </trkpt>
      <trkpt lat="45.10677" lon="5.27141">
        <ele>192</ele>
        <time>2017-02-27T21:14:54Z</time>
      </trkpt>
      <trkpt lat="45.10591" lon="5.27093">
        <ele>184</ele>
        <time>2017-02-27T21:16:54Z</time>
      </trkpt>
      <trkpt lat="45.10556" lon="5.27054">
        <ele>192</ele>
        <time>2017-02-27T21:18:54Z</time>
      </trkpt>
      <trkpt lat="45.10502" lon="5.27042">
        <ele>189</ele>
        <time>2017-02-27T21:20:54Z</time>
      </trkpt>
      <trkpt lat="45.10414" lon="5.27038">
        <ele>188</ele>
        <time>2017-02-27T21:22:54Z</time>
      </trkpt>
      <trkpt lat="45.10374" lon="5.27009">
        <ele>190</ele>
        <time>2017-02-27T21:24:54Z</time>
      </trkpt>
      <trkpt lat="45.10339" lon="5.27">
        <ele>189</ele>
        <time>2017-02-27T21:26:54Z</time>
      </trkpt>
      <trkpt lat="45.10284" lon="5.26949">
        <ele>196</ele>
        <time>2017-02-27T21:28:54Z</time>
      </trkpt>
      <trkpt lat="45.1024" lon="5.26955">
        <ele>190</ele>
        <time>2017-02-27T21:30:54Z</time>
      </trkpt>
      <trkpt lat="45.1019" lon="5.26946">
        <ele>193</ele>
        <time>2017-02-27T21:32:54Z</time>
      </trkpt>
      <trkpt lat="45.10144" lon="5.26976">
        <ele>189</ele>
        <time>2017-02-27T21:34:54Z</time>
      </trkpt>
      <trkpt lat="45.10109" lon="5.26972">
        <ele>191</ele>
        <time>2017-02-27T21:36:54Z</time>
      </trkpt>
      <trkpt lat="45.10076" lon="5.26963">
        <ele>195</ele>
        <time>2017-02-27T21:38:54Z</time>
      </trkpt>
      <trkpt lat="45.10042" lon="5.26987">
        <ele>192</ele>
        <time>2017-02-27T21:40:54Z</time>
      </trkpt>
      <trkpt lat="45.10005" lon="5.27009">
        <ele>193</ele>
        <time>2017-02-27T21:42:54Z</time>
      </trkpt>
      <trkpt lat="45.09961" lon="5.27009">
        <ele>190</ele>
        <time>2017-02-27T21:44:54Z</time>
      </trkpt>
      <trkpt lat="45.09841" lon="5.26976">
        <ele>186</ele>
        <time>2017-02-27T21:46:54Z</time>
      </trkpt>
      <trkpt lat="45.09813" lon="5.26949">
        <ele>189</ele>
        <time>2017-02-27T21:48:54Z</time>
      </trkpt>
      <trkpt lat="45.09772" lon="5.26946">
        <ele>190</ele>
        <time>2017-02-27T21:50:54Z</time>
      </trkpt>
      <trkpt lat="45.09717" lon="5.26931">
        <ele>193</ele>
        <time>2017-02-27T21:52:54Z</time>
      </trkpt>
      <trkpt lat="45.09613" lon="5.26895">
        <ele>193</ele>
        <time>2017-02-27T21:54:54Z</time>
      </trkpt>
      <trkpt lat="45.09538" lon="5.26877">
        <ele>192</ele>
        <time>2017-02-27T21:56:54Z</time>
      </trkpt>
      <trkpt lat="45.0947" lon="5.26858">
        <ele>195</ele>
        <time>2017-02-27T21:58:54Z</time>
      </trkpt>
      <trkpt lat="45.09399" lon="5.26855">
        <ele>198</ele>
        <time>2017-02-27T22:00:54Z</time>
      </trkpt>
      <trkpt lat="45.09353" lon="5.26872">
        <ele>201</ele>
        <time>2017-02-27T22:02:54Z</time>
      </trkpt>
      <trkpt lat="45.09305" lon="5.26893">
        <ele>202</ele>
        <time>2017-02-27T22:04:54Z</time>
      </trkpt>
      <trkpt lat="45.09253" lon="5.26904">
        <ele>202</ele>
        <time>2017-02-27T22:06:54Z</time>
      </trkpt>
      <trkpt lat="45.09176" lon="5.26913">
        <ele>199</ele>
        <time>2017-02-27T22:08:54Z</time>
      </trkpt>
      <trkpt lat="45.09046" lon="5.26919">
        <ele>199</ele>
        <time>2017-02-27T22:10:54Z</time>
      </trkpt>
      <trkpt lat="45.08983" lon="5.26934">
        <ele>197</ele>
        <time>2017-02-27T22:12:54Z</time>
      </trkpt>
      <trkpt lat="45.0891" lon="5.26935">
        <ele>195</ele>
        <time>2017-02-27T22:14:54Z</time>
      </trkpt>
      <trkpt lat="45.08835" lon="5.26948">
        <ele>195</ele>
        <time>2017-02-27T22:16:54Z</time>
      </trkpt>
      <trkpt lat="45.0876" lon="5.26926">
        <ele>198</ele>
        <time>2017-02-27T22:18:54Z</time>
      </trkpt>
      <trkpt lat="45.08655" lon="5.26908">
        <ele>195</ele>
        <time>2017-02-27T22:20:54Z</time>
      </trkpt>
      <trkpt lat="45.08614" lon="5.26891">
        <ele>194</ele>
        <time>2017-02-27T22:22:54Z</time>
      </trkpt>
      <trkpt lat="45.08502" lon="5.26817">
        <ele>197</ele>
        <time>2017-02-27T22:24:54Z</time>
      </trkpt>
      <trkpt lat="45.08419" lon="5.26779">
        <ele>196</ele>
        <time>2017-02-27T22:26:54Z</time>
      </trkpt>
      <trkpt lat="45.08361" lon="5.26753">
        <ele>197</ele>
        <time>2017-02-27T22:28:54Z</time>
      </trkpt>
      <trkpt lat="45.0832" lon="5.26736">
        <ele>197</ele>
        <time>2017-02-27T22:30:54Z</time>
      </trkpt>
      <trkpt lat="45.08283" lon="5.26742">
        <ele>193</ele>
        <time>2017-02-27T22:32:54Z</time>
      </trkpt>
      <trkpt lat="45.0825" lon="5.26731">
        <ele>191</ele>
        <time>2017-02-27T22:34:54Z</time>
      </trkpt>
      <trkpt lat="45.08204" lon="5.26697">
        <ele>194</ele>
        <time>2017-02-27T22:36:54Z</time>
      </trkpt>
      <trkpt lat="45.08093" lon="5.26604">
        <ele>195</ele>
        <time>2017-02-27T22:38:54Z</time>
      </trkpt>
      <trkpt lat="45.08055" lon="5.26561">
        <ele>195</ele>
        <time>2017-02-27T22:40:54Z</time>
      </trkpt>
      <trkpt lat="45.08004" lon="5.26517">
        <ele>194</ele>
        <time>2017-02-27T22:42:54Z</time>
      </trkpt>
      <trkpt lat="45.07956" lon="5.26468">
        <ele>197</ele>
        <time>2017-02-27T22:44:54Z</time>
      </trkpt>
      <trkpt lat="45.07933" lon="5.26416">
        <ele>200</ele>
        <time>2017-02-27T22:46:54Z</time>
      </trkpt>
      <trkpt lat="45.07875" lon="5.26397">
        <ele>199</ele>
        <time>2017-02-27T22:48:54Z</time>
      </trkpt>
      <trkpt lat="45.0785" lon="5.26375">
        <ele>199</ele>
        <time>2017-02-27T22:50:54Z</time>
      </trkpt>
      <trkpt lat="45.0784" lon="5.26355">
        <ele>199</ele>
        <time>2017-02-27T22:52:54Z</time>
      </trkpt>
      <trkpt lat="45.07829" lon="5.26361">
        <ele>199</ele>
        <time>2017-02-27T22:54:54Z</time>
      </trkpt>
      <trkpt lat="45.07717" lon="5.2631">
        <ele>199</ele>
        <time>2017-02-27T22:56:54Z</time>
      </trkpt>
      <trkpt lat="45.07661" lon="5.263">
        <ele>199</ele>
        <time>2017-02-27T22:58:54Z</time>
      </trkpt>
      <trkpt lat="45.07605" lon="5.26257">
        <ele>197</ele>
        <time>2017-02-27T23:00:54Z</time>
      </trkpt>
      <trkpt lat="45.07605" lon="5.26235">
        <ele>198</ele>
        <time>2017-02-27T23:02:54Z</time>
      </trkpt>
      <trkpt lat="45.07588" lon="5.26206">
        <ele>200</ele>
        <time>2017-02-27T23:04:54Z</time>
      </trkpt>
      <trkpt lat="45.0753" lon="5.26127">
        <ele>197</ele>
        <time>2017-02-27T23:06:54Z</time>
      </trkpt>
      <trkpt lat="45.07445" lon="5.26031">
        <ele>198</ele>
        <time>2017-02-27T23:08:54Z</time>
      </trkpt>
      <trkpt lat="45.07388" lon="5.25964">
        <ele>199</ele>
        <time>2017-02-27T23:10:54Z</time>
      </trkpt>
      <trkpt lat="45.0735" lon="5.259">
        <ele>200</ele>
        <time>2017-02-27T23:12:54Z</time>
      </trkpt>
      <trkpt lat="45.07314" lon="5.25861">
        <ele>200</ele>
        <time>2017-02-27T23:14:54Z</time>
      </trkpt>
      <trkpt lat="45.07295" lon="5.25829">
        <ele>202</ele>
        <time>2017-02-27T23:16:54Z</time>
      </trkpt>
      <trkpt lat="45.07242" lon="5.25799">
        <ele>203</ele>
        <time>2017-02-27T23:18:54Z</time>
      </trkpt>
      <trkpt lat="45.07202" lon="5.25732">
        <ele>202</ele>
        <time>2017-02-27T23:20:54Z</time>
      </trkpt>
      <trkpt lat="45.07189" lon="5.2569">
        <ele>202</ele>
        <time>2017-02-27T23:22:54Z</time>
      </trkpt>
      <trkpt lat="45.07164" lon="5.25593">
        <ele>204</ele>
        <time>2017-02-27T23:24:54Z</time>
      </trkpt>
      <trkpt lat="45.07121" lon="5.25439">
        <ele>203</ele>
        <time>2017-02-27T23:26:54Z</time>
      </trkpt>
      <trkpt lat="45.07091" lon="5.2534">
        <ele>202</ele>
        <time>2017-02-27T23:28:54Z</time>
      </trkpt>
      <trkpt lat="45.07072" lon="5.25261">
        <ele>202</ele>
        <time>2017-02-27T23:30:54Z</time>
      </trkpt>
      <trkpt lat="45.0704" lon="5.25163">
        <ele>200</ele>
        <time>2017-02-27T23:32:54Z</time>
      </trkpt>
      <trkpt lat="45.07032" lon="5.25115">
        <ele>201</ele>
        <time>2017-02-27T23:34:54Z</time>
      </trkpt>
      <trkpt lat="45.06983" lon="5.25049">
        <ele>200</ele>
        <time>2017-02-27T23:36:54Z</time>
      </trkpt>
      <trkpt lat="45.06944" lon="5.24982">
        <ele>196</ele>
        <time>2017-02-27T23:38:54Z</time>
      </trkpt>
      <trkpt lat="45.06889" lon="5.24849">
        <ele>187</ele>
        <time>2017-02-27T23:40:54Z</time>
      </trkpt>
      <trkpt lat="45.06876" lon="5.24796">
        <ele>186</ele>
        <time>2017-02-27T23:42:54Z</time>
      </trkpt>
      <trkpt lat="45.06851" lon="5.24726">
        <ele>185</ele>
        <time>2017-02-27T23:44:54Z</time>
      </trkpt>
      <trkpt lat="45.06854" lon="5.2469">
        <ele>186</ele>
        <time>2017-02-27T23:46:54Z</time>
      </trkpt>
      <trkpt lat="45.06853" lon="5.24645">
        <ele>187</ele>
        <time>2017-02-27T23:48:54Z</time>
      </trkpt>
      <trkpt lat="45.06838" lon="5.24571">
        <ele>188</ele>
        <time>2017-02-27T23:50:54Z</time>
      </trkpt>
      <trkpt lat="45.06834" lon="5.24518">
        <ele>188</ele>
        <time>2017-02-27T23:52:54Z</time>
      </trkpt>
      <trkpt lat="45.06817" lon="5.24472">
        <ele>184</ele>
        <time>2017-02-27T23:54:54Z</time>
      </trkpt>
      <trkpt lat="45.06828" lon="5.2445">
        <ele>186</ele>
        <time>2017-02-27T23:56:54Z</time>
      </trkpt>
      <trkpt lat="45.06851" lon="5.24423">
        <ele>189</ele>
        <time>2017-02-27T23:58:54Z</time>
      </trkpt>
      <trkpt lat="45.06879" lon="5.24402">
        <ele>191</ele>
        <time>2017-02-28T00:00:54Z</time>
      </trkpt>
      <trkpt lat="45.06919" lon="5.2441">
        <ele>195</ele>
        <time>2017-02-28T00:02:54Z</time>
      </trkpt>
      <trkpt lat="45.06949" lon="5.24413">
        <ele>196</ele>
        <time>2017-02-28T00:04:54Z</time>
      </trkpt>
      <trkpt lat="45.06972" lon="5.24404">
        <ele>197</ele>
        <time>2017-02-28T00:06:54Z</time>
      </trkpt>
      <trkpt lat="45.06914" lon="5.24373">
        <ele>195</ele>
        <time>2017-02-28T00:08:54Z</time>
      </trkpt>
      <trkpt lat="45.06665" lon="5.24284">
        <ele>169</ele>
        <time>2017-02-28T00:10:54Z</time>
      </trkpt>
      <trkpt lat="45.06586" lon="5.24251">
        <ele>183</ele>
        <time>2017-02-28T00:12:54Z</time>
      </trkpt>
      <trkpt lat="45.06554" lon="5.24227">
        <ele>186</ele>
        <time>2017-02-28T00:14:54Z</time>
      </trkpt>
      <trkpt lat="45.06539" lon="5.24168">
        <ele>188</ele>
        <time>2017-02-28T00:16:54Z</time>
      </trkpt>
      <trkpt lat="45.06521" lon="5.24115">
        <ele>193</ele>
        <time>2017-02-28T00:18:54Z</time>
      </trkpt>
      <trkpt lat="45.06548" lon="5.24099">
        <ele>190</ele>
        <time>2017-02-28T00:20:54Z</time>
      </trkpt>
      <trkpt lat="45.0656" lon="5.24086">
        <ele>189</ele>
        <time>2017-02-28T00:22:54Z</time>
      </trkpt>
      <trkpt lat="45.06569" lon="5.24086">
        <ele>187</ele>
        <time>2017-02-28T00:24:54Z</time>
      </trkpt>
      <trkpt lat="45.06591" lon="5.2406">
        <ele>183</ele>
        <time>2017-02-28T00:26:54Z</time>
      </trkpt>
      <trkpt lat="45.06622" lon="5.23947">
        <ele>179</ele>
        <time>2017-02-28T00:28:54Z</time>
      </trkpt>
      <trkpt lat="45.06633" lon="5.23912">
        <ele>179</ele>
        <time>2017-02-28T00:30:54Z</time>
      </trkpt>
      <trkpt lat="45.06651" lon="5.239">
        <ele>178</ele>
        <time>2017-02-28T00:32:54Z</time>
      </trkpt>
      <trkpt lat="45.06665" lon="5.23887">
        <ele>177</ele>
        <time>2017-02-28T00:34:54Z</time>
      </trkpt>
      <trkpt lat="45.06666" lon="5.23859">
        <ele>177</ele>
        <time>2017-02-28T00:36:54Z</time>
      </trkpt>
      <trkpt lat="45.06673" lon="5.23825">
        <ele>177</ele>
        <time>2017-02-28T00:38:54Z</time>
      </trkpt>
      <trkpt lat="45.06697" lon="5.23782">
        <ele>175</ele>
        <time>2017-02-28T00:40:54Z</time>
      </trkpt>
      <trkpt lat="45.06689" lon="5.23743">
        <ele>178</ele>
        <time>2017-02-28T00:42:54Z</time>
      </trkpt>
      <trkpt lat="45.06673" lon="5.23634">
        <ele>183</ele>
        <time>2017-02-28T00:44:54Z</time>
      </trkpt>
      <trkpt lat="45.06677" lon="5.23586">
        <ele>184</ele>
        <time>2017-02-28T00:46:54Z</time>
      </trkpt>
      <trkpt lat="45.06673" lon="5.23525">
        <ele>187</ele>
        <time>2017-02-28T00:48:54Z</time>
      </trkpt>
      <trkpt lat="45.06666" lon="5.23449">
        <ele>191</ele>
        <time>2017-02-28T00:50:54Z</time>
      </trkpt>
      <trkpt lat="45.06719" lon="5.23383">
        <ele>189</ele>
        <time>2017-02-28T00:52:54Z</time>
      </trkpt>
      <trkpt lat="45.06766" lon="5.23319">
        <ele>186</ele>
        <time>2017-02-28T00:54:54Z</time>
      </trkpt>
      <trkpt lat="45.06802" lon="5.23279">
        <ele>186</ele>
        <time>2017-02-28T00:56:54Z</time>
      </trkpt>
      <trkpt lat="45.0682" lon="5.23255">
        <ele>187</ele>
        <time>2017-02-28T00:58:54Z</time>
      </trkpt>
      <trkpt lat="45.06823" lon="5.23237">
        <ele>187</ele>
        <time>2017-02-28T01:00:54Z</time>
      </trkpt>
      <trkpt lat="45.06855" lon="5.23222">
        <ele>187</ele>
        <time>2017-02-28T01:02:54Z</time>
      </trkpt>
      <trkpt lat="45.06886" lon="5.23196">
        <ele>187</ele>
        <time>2017-02-28T01:04:54Z</time>
      </trkpt>
      <trkpt lat="45.06914" lon="5.23167">
        <ele>189</ele>
        <time>2017-02-28T01:06:54Z</time>
      </trkpt>
      <trkpt lat="45.06962" lon="5.23074">
        <ele>189</ele>
        <time>2017-02-28T01:08:54Z</time>
      </trkpt>
      <trkpt lat="45.07026" lon="5.22977">
        <ele>190</ele>
        <time>2017-02-28T01:10:54Z</time>
      </trkpt>
      <trkpt lat="45.07064" lon="5.22928">
        <ele>191</ele>
        <time>2017-02-28T01:12:54Z</time>
      </trkpt>
      <trkpt lat="45.07147" lon="5.2283">
        <ele>192</ele>
        <time>2017-02-28T01:14:54Z</time>
      </trkpt>
      <trkpt lat="45.07234" lon="5.22731">
        <ele>190</ele>
        <time>2017-02-28T01:16:54Z</time>
      </trkpt>
      <trkpt lat="45.07285" lon="5.2268">
        <ele>191</ele>
        <time>2017-02-28T01:18:54Z</time>
      </trkpt>
      <trkpt lat="45.07328" lon="5.22645">
        <ele>191</ele>
        <time>2017-02-28T01:20:54Z</time>
      </trkpt>
      <trkpt lat="45.07396" lon="5.22594">
        <ele>191</ele>
        <time>2017-02-28T01:22:54Z</time>
      </trkpt>
      <trkpt lat="45.07434" lon="5.22578">
        <ele>192</ele>
        <time>2017-02-28T01:24:54Z</time>
      </trkpt>
      <trkpt lat="45.07498" lon="5.22575">
        <ele>187</ele>
        <time>2017-02-28T01:26:54Z</time>
      </trkpt>
      <trkpt lat="45.07548" lon="5.22582">
        <ele>189</ele>
        <time>2017-02-28T01:28:54Z</time>
      </trkpt>
      <trkpt lat="45.07598" lon="5.22591">
        <ele>189</ele>
        <time>2017-02-28T01:30:54Z</time>
      </trkpt>
      <trkpt lat="45.07625" lon="5.22603">
        <ele>184</ele>
        <time>2017-02-28T01:32:54Z</time>
      </trkpt>
      <trkpt lat="45.07646" lon="5.22593">
        <ele>184</ele>
        <time>2017-02-28T01:34:54Z</time>
      </trkpt>
      <trkpt lat="45.07654" lon="5.22573">
        <ele>186</ele>
        <time>2017-02-28T01:36:54Z</time>
      </trkpt>
      <trkpt lat="45.07629" lon="5.22507">
        <ele>190</ele>
        <time>2017-02-28T01:38:54Z</time>
      </trkpt>
      <trkpt lat="45.07623" lon="5.22474">
        <ele>190</ele>
        <time>2017-02-28T01:40:54Z</time>
      </trkpt>
      <trkpt lat="45.07632" lon="5.22455">
        <ele>190</ele>
        <time>2017-02-28T01:42:54Z</time>
      </trkpt>
      <trkpt lat="45.0769" lon="5.22431">
        <ele>189</ele>
        <time>2017-02-28T01:44:54Z</time>
      </trkpt>
      <trkpt lat="45.07733" lon="5.2241">
        <ele>189</ele>
        <time>2017-02-28T01:46:54Z</time>
      </trkpt>
      <trkpt lat="45.0782" lon="5.22382">
        <ele>188</ele>
        <time>2017-02-28T01:48:54Z</time>
      </trkpt>
      <trkpt lat="45.07837" lon="5.22362">
        <ele>187</ele>
        <time>2017-02-28T01:50:54Z</time>
      </trkpt>
      <trkpt lat="45.0787" lon="5.22285">
        <ele>186</ele>
        <time>2017-02-28T01:52:54Z</time>
      </trkpt>
      <trkpt lat="45.07905" lon="5.22195">
        <ele>187</ele>
        <time>2017-02-28T01:54:54Z</time>
      </trkpt>
      <trkpt lat="45.07914" lon="5.22157">
        <ele>188</ele>
        <time>2017-02-28T01:56:54Z</time>
      </trkpt>
      <trkpt lat="45.07933" lon="5.22116">
        <ele>183</ele>
        <time>2017-02-28T01:58:54Z</time>
      </trkpt>
      <trkpt lat="45.07935" lon="5.22088">
        <ele>183</ele>
        <time>2017-02-28T02:00:54Z</time>
      </trkpt>
      <trkpt lat="45.07943" lon="5.2206">
        <ele>181</ele>
        <time>2017-02-28T02:02:54Z</time>
      </trkpt>
      <trkpt lat="45.0795" lon="5.22015">
        <ele>181</ele>
        <time>2017-02-28T02:04:54Z</time>
      </trkpt>
      <trkpt lat="45.07968" lon="5.21947">
        <ele>179</ele>
        <time>2017-02-28T02:06:54Z</time>
      </trkpt>
      <trkpt lat="45.0798" lon="5.21907">
        <ele>178</ele>
        <time>2017-02-28T02:08:54Z</time>
      </trkpt>
      <trkpt lat="45.0798" lon="5.21878">
        <ele>181</ele>
        <time>2017-02-28T02:10:54Z</time>
      </trkpt>
      <trkpt lat="45.07987" lon="5.21856">
        <ele>183</ele>
        <time>2017-02-28T02:12:54Z</time>
      </trkpt>
      <trkpt lat="45.08009" lon="5.21829">
        <ele>181</ele>
        <time>2017-02-28T02:14:54Z</time>
      </trkpt>
      <trkpt lat="45.08036" lon="5.21729">
        <ele>179</ele>
        <time>2017-02-28T02:16:54Z</time>
      </trkpt>
      <trkpt lat="45.08066" lon="5.21666">
        <ele>179</ele>
        <time>2017-02-28T02:18:54Z</time>
      </trkpt>
      <trkpt lat="45.08103" lon="5.21556">
        <ele>182</ele>
        <time>2017-02-28T02:20:54Z</time>
      </trkpt>
      <trkpt lat="45.0813" lon="5.21486">
        <ele>184</ele>
        <time>2017-02-28T02:22:54Z</time>
      </trkpt>
      <trkpt lat="45.08148" lon="5.21425">
        <ele>186</ele>
        <time>2017-02-28T02:24:54Z</time>
      </trkpt>
      <trkpt lat="45.08202" lon="5.21288">
        <ele>181</ele>
        <time>2017-02-28T02:26:54Z</time>
      </trkpt>
      <trkpt lat="45.08198" lon="5.21263">
        <ele>184</ele>
        <time>2017-02-28T02:28:54Z</time>
      </trkpt>
      <trkpt lat="45.08137" lon="5.21234">
        <ele>190</ele>
        <time>2017-02-28T02:30:54Z</time>
      </trkpt>
      <trkpt lat="45.08088" lon="5.21209">
        <ele>192</ele>
        <time>2017-02-28T02:32:54Z</time>
      </trkpt>
      <trkpt lat="45.08038" lon="5.21188">
        <ele>193</ele>
        <time>2017-02-28T02:34:54Z</time>
      </trkpt>
      <trkpt lat="45.08069" lon="5.21115">
        <ele>192</ele>
        <time>2017-02-28T02:36:54Z</time>
      </trkpt>
      <trkpt lat="45.08096" lon="5.21039">
        <ele>192</ele>
        <time>2017-02-28T02:38:54Z</time>
      </trkpt>
      <trkpt lat="45.08104" lon="5.20998">
        <ele>193</ele>
        <time>2017-02-28T02:40:54Z</time>
      </trkpt>
      <trkpt lat="45.0814" lon="5.20956">
        <ele>191</ele>
        <time>2017-02-28T02:42:54Z</time>
      </trkpt>
      <trkpt lat="45.08184" lon="5.20893">
        <ele>191</ele>
        <time>2017-02-28T02:44:54Z</time>
      </trkpt>
      <trkpt lat="45.0821" lon="5.20845">
        <ele>191</ele>
        <time>2017-02-28T02:46:54Z</time>
      </trkpt>
      <trkpt lat="45.08239" lon="5.20787">
        <ele>191</ele>
        <time>2017-02-28T02:48:54Z</time>
      </trkpt>
      <trkpt lat="45.08253" lon="5.20693">
        <ele>190</ele>
        <time>2017-02-28T02:50:54Z</time>
      </trkpt>
      <trkpt lat="45.08267" lon="5.20622">
        <ele>188</ele>
        <time>2017-02-28T02:52:54Z</time>
      </trkpt>
      <trkpt lat="45.0827" lon="5.20569">
        <ele>188</ele>
        <time>2017-02-28T02:54:54Z</time>
      </trkpt>
      <trkpt lat="45.08266" lon="5.20499">
        <ele>190</ele>
        <time>2017-02-28T02:56:54Z</time>
      </trkpt>
      <trkpt lat="45.08263" lon="5.20409">
        <ele>190</ele>
        <time>2017-02-28T02:58:54Z</time>
      </trkpt>
      <trkpt lat="45.08264" lon="5.20348">
        <ele>189</ele>
        <time>2017-02-28T03:00:54Z</time>
      </trkpt>
      <trkpt lat="45.08256" lon="5.20268">
        <ele>193</ele>
        <time>2017-02-28T03:02:54Z</time>
      </trkpt>
      <trkpt lat="45.08238" lon="5.20208">
        <ele>193</ele>
        <time>2017-02-28T03:04:54Z</time>
      </trkpt>
      <trkpt lat="45.08241" lon="5.20163">
        <ele>191</ele>
        <time>2017-02-28T03:06:54Z</time>
      </trkpt>
      <trkpt lat="45.08235" lon="5.20084">
        <ele>193</ele>
        <time>2017-02-28T03:08:54Z</time>
      </trkpt>
      <trkpt lat="45.08238" lon="5.20035">
        <ele>192</ele>
        <time>2017-02-28T03:10:54Z</time>
      </trkpt>
      <trkpt lat="45.08243" lon="5.19995">
        <ele>191</ele>
        <time>2017-02-28T03:12:54Z</time>
      </trkpt>
      <trkpt lat="45.08234" lon="5.19938">
        <ele>193</ele>
        <time>2017-02-28T03:14:54Z</time>
      </trkpt>
      <trkpt lat="45.08229" lon="5.19919">
        <ele>193</ele>
        <time>2017-02-28T03:16:54Z</time>
      </trkpt>
      <trkpt lat="45.08167" lon="5.19878">
        <ele>195</ele>
        <time>2017-02-28T03:18:54Z</time>
      </trkpt>
      <trkpt lat="45.08144" lon="5.1986">
        <ele>195</ele>
        <time>2017-02-28T03:20:54Z</time>
      </trkpt>
      <trkpt lat="45.08134" lon="5.19838">
        <ele>195</ele>
        <time>2017-02-28T03:22:54Z</time>
      </trkpt>
      <trkpt lat="45.08134" lon="5.19816">
        <ele>195</ele>
        <time>2017-02-28T03:24:54Z</time>
      </trkpt>
      <trkpt lat="45.08203" lon="5.19581">
        <ele>190</ele>
        <time>2017-02-28T03:26:54Z</time>
      </trkpt>
      <trkpt lat="45.08202" lon="5.19559">
        <ele>190</ele>
        <time>2017-02-28T03:28:54Z</time>
      </trkpt>
      <trkpt lat="45.08189" lon="5.19498">
        <ele>191</ele>
        <time>2017-02-28T03:30:54Z</time>
      </trkpt>
      <trkpt lat="45.08154" lon="5.19399">
        <ele>192</ele>
        <time>2017-02-28T03:32:54Z</time>
      </trkpt>
      <trkpt lat="45.08102" lon="5.19279">
        <ele>193</ele>
        <time>2017-02-28T03:34:54Z</time>
      </trkpt>
      <trkpt lat="45.08049" lon="5.19189">
        <ele>192</ele>
        <time>2017-02-28T03:36:54Z</time>
      </trkpt>
      <trkpt lat="45.07992" lon="5.19124">
        <ele>191</ele>
        <time>2017-02-28T03:38:54Z</time>
      </trkpt>
      <trkpt lat="45.07956" lon="5.19067">
        <ele>191</ele>
        <time>2017-02-28T03:40:54Z</time>
      </trkpt>
      <trkpt lat="45.07889" lon="5.18963">
        <ele>191</ele>
        <time>2017-02-28T03:42:54Z</time>
      </trkpt>
      <trkpt lat="45.07826" lon="5.18836">
        <ele>190</ele>
        <time>2017-02-28T03:44:54Z</time>
      </trkpt>
      <trkpt lat="45.07782" lon="5.18761">
        <ele>191</ele>
        <time>2017-02-28T03:46:54Z</time>
      </trkpt>
      <trkpt lat="45.07752" lon="5.18735">
        <ele>191</ele>
        <time>2017-02-28T03:48:54Z</time>
      </trkpt>
      <trkpt lat="45.07744" lon="5.18682">
        <ele>191</ele>
        <time>2017-02-28T03:50:54Z</time>
      </trkpt>
      <trkpt lat="45.07723" lon="5.18629">
        <ele>190</ele>
        <time>2017-02-28T03:52:54Z</time>
      </trkpt>
      <trkpt lat="45.07738" lon="5.18599">
        <ele>189</ele>
        <time>2017-02-28T03:54:54Z</time>
      </trkpt>
      <trkpt lat="45.07742" lon="5.18534">
        <ele>188</ele>
        <time>2017-02-28T03:56:54Z</time>
      </trkpt>
      <trkpt lat="45.07746" lon="5.18475">
        <ele>188</ele>
        <time>2017-02-28T03:58:54Z</time>
      </trkpt>
      <trkpt lat="45.07764" lon="5.18413">
        <ele>189</ele>
        <time>2017-02-28T04:00:54Z</time>
      </trkpt>
      <trkpt lat="45.07783" lon="5.1828">
        <ele>187</ele>
        <time>2017-02-28T04:02:54Z</time>
      </trkpt>
      <trkpt lat="45.07799" lon="5.18162">
        <ele>187</ele>
        <time>2017-02-28T04:04:54Z</time>
      </trkpt>
      <trkpt lat="45.07808" lon="5.18073">
        <ele>184</ele>
        <time>2017-02-28T04:06:54Z</time>
      </trkpt>
      <trkpt lat="45.07818" lon="5.18011">
        <ele>178</ele>
        <time>2017-02-28T04:08:54Z</time>
      </trkpt>
      <trkpt lat="45.07811" lon="5.17977">
        <ele>176</ele>
        <time>2017-02-28T04:10:54Z</time>
      </trkpt>
      <trkpt lat="45.07787" lon="5.17879">
        <ele>171</ele>
        <time>2017-02-28T04:12:54Z</time>
      </trkpt>
      <trkpt lat="45.07787" lon="5.17825">
        <ele>168</ele>
        <time>2017-02-28T04:14:54Z</time>
      </trkpt>
      <trkpt lat="45.07788" lon="5.17769">
        <ele>167</ele>
        <time>2017-02-28T04:16:54Z</time>
      </trkpt>
      <trkpt lat="45.0776" lon="5.1775">
        <ele>169</ele>
        <time>2017-02-28T04:18:54Z</time>
      </trkpt>
      <trkpt lat="45.07733" lon="5.1774">
        <ele>168</ele>
        <time>2017-02-28T04:20:54Z</time>
      </trkpt>
      <trkpt lat="45.07698" lon="5.17731">
        <ele>167</ele>
        <time>2017-02-28T04:22:54Z</time>
      </trkpt>
      <trkpt lat="45.07667" lon="5.17796">
        <ele>168</ele>
        <time>2017-02-28T04:24:54Z</time>
      </trkpt>
      <trkpt lat="45.07625" lon="5.17748">
        <ele>167</ele>
        <time>2017-02-28T04:26:54Z</time>
      </trkpt>
      <trkpt lat="45.07602" lon="5.17736">
        <ele>168</ele>
        <time>2017-02-28T04:28:54Z</time>
      </trkpt>
      <trkpt lat="45.07545" lon="5.17714">
        <ele>168</ele>
        <time>2017-02-28T04:30:54Z</time>
      </trkpt>
      <trkpt lat="45.07429" lon="5.17677">
        <ele>167</ele>
        <time>2017-02-28T04:32:54Z</time>
      </trkpt>
      <trkpt lat="45.07379" lon="5.17652">
        <ele>168</ele>
        <time>2017-02-28T04:34:54Z</time>
      </trkpt>
      <trkpt lat="45.07341" lon="5.17616">
        <ele>168</ele>
        <time>2017-02-28T04:36:54Z</time>
      </trkpt>
      <trkpt lat="45.07339" lon="5.17601">
        <ele>167</ele>
        <time>2017-02-28T04:38:54Z</time>
      </trkpt>
      <trkpt lat="45.07288" lon="5.17565">
        <ele>166</ele>
        <time>2017-02-28T04:40:54Z</time>
      </trkpt>
      <trkpt lat="45.07271" lon="5.17568">
        <ele>166</ele>
        <time>2017-02-28T04:42:54Z</time>
      </trkpt>
      <trkpt lat="45.07217" lon="5.17527">
        <ele>166</ele>
        <time>2017-02-28T04:44:54Z</time>
      </trkpt>
      <trkpt lat="45.07155" lon="5.17502">
        <ele>168</ele>
        <time>2017-02-28T04:46:54Z</time>
      </trkpt>
      <trkpt lat="45.07116" lon="5.1752">
        <ele>177</ele>
        <time>2017-02-28T04:48:54Z</time>
      </trkpt>
      <trkpt lat="45.07112" lon="5.17535">
        <ele>180</ele>
        <time>2017-02-28T04:50:54Z</time>
      </trkpt>
      <trkpt lat="45.0712" lon="5.17553">
        <ele>181</ele>
        <time>2017-02-28T04:52:54Z</time>
      </trkpt>
      <trkpt lat="45.07116" lon="5.17564">
        <ele>182</ele>
        <time>2017-02-28T04:54:54Z</time>
      </trkpt>
      <trkpt lat="45.07096" lon="5.1758">
        <ele>186</ele>
        <time>2017-02-28T04:56:54Z</time>
      </trkpt>
      <trkpt lat="45.071" lon="5.17594">
        <ele>186</ele>
        <time>2017-02-28T04:58:54Z</time>
      </trkpt>
      <trkpt lat="45.07112" lon="5.17615">
        <ele>187</ele>
        <time>2017-02-28T05:00:54Z</time>
      </trkpt>
      <trkpt lat="45.07097" lon="5.17626">
        <ele>188</ele>
        <time>2017-02-28T05:02:54Z</time>
      </trkpt>
      <trkpt lat="45.07103" lon="5.17642">
        <ele>189</ele>
        <time>2017-02-28T05:04:54Z</time>
      </trkpt>
      <trkpt lat="45.07108" lon="5.17667">
        <ele>190</ele>
        <time>2017-02-28T05:06:54Z</time>
      </trkpt>
      <trkpt lat="45.07106" lon="5.1769">
        <ele>191</ele>
        <time>2017-02-28T05:08:54Z</time>
      </trkpt>
      <trkpt lat="45.07087" lon="5.17655">
        <ele>190</ele>
        <time>2017-02-28T05:10:54Z</time>
      </trkpt>
      <trkpt lat="45.0707" lon="5.17615">
        <ele>189</ele>
        <time>2017-02-28T05:12:54Z</time>
      </trkpt>
      <trkpt lat="45.07058" lon="5.17563">
        <ele>187</ele>
        <time>2017-02-28T05:14:54Z</time>
      </trkpt>
      <trkpt lat="45.0704" lon="5.17489">
        <ele>184</ele>
        <time>2017-02-28T05:16:54Z</time>
      </trkpt>
      <trkpt lat="45.06976" lon="5.17401">
        <ele>181</ele>
        <time>2017-02-28T05:18:54Z</time>
      </trkpt>
      <trkpt lat="45.06921" lon="5.17331">
        <ele>182</ele>
        <time>2017-02-28T05:20:54Z</time>
      </trkpt>
      <trkpt lat="45.06841" lon="5.17271">
        <ele>183</ele>
        <time>2017-02-28T05:22:54Z</time>
      </trkpt>
      <trkpt lat="45.06774" lon="5.17184">
        <ele>181</ele>
        <time>2017-02-28T05:24:54Z</time>
      </trkpt>
      <trkpt lat="45.06736" lon="5.17137">
        <ele>182</ele>
        <time>2017-02-28T05:26:54Z</time>
      </trkpt>
      <trkpt lat="45.06703" lon="5.17115">
        <ele>183</ele>
        <time>2017-02-28T05:28:54Z</time>
      </trkpt>
      <trkpt lat="45.06662" lon="5.17031">
        <ele>178</ele>
        <time>2017-02-28T05:30:54Z</time>
      </trkpt>
      <trkpt lat="45.0665" lon="5.16957">
        <ele>171</ele>
        <time>2017-02-28T05:32:54Z</time>
      </trkpt>
      <trkpt lat="45.06628" lon="5.16859">
        <ele>164</ele>
        <time>2017-02-28T05:34:54Z</time>
      </trkpt>
      <trkpt lat="45.06588" lon="5.16712">
        <ele>170</ele>
        <time>2017-02-28T05:36:54Z</time>
      </trkpt>
      <trkpt lat="45.06581" lon="5.16651">
        <ele>169</ele>
        <time>2017-02-28T05:38:54Z</time>
      </trkpt>
      <trkpt lat="45.0656" lon="5.16579">
        <ele>166</ele>
        <time>2017-02-28T05:40:54Z</time>
      </trkpt>
      <trkpt lat="45.06524" lon="5.16508">
        <ele>164</ele>
        <time>2017-02-28T05:42:54Z</time>
      </trkpt>
      <trkpt lat="45.06499" lon="5.16489">
        <ele>165</ele>
        <time>2017-02-28T05:44:54Z</time>
      </trkpt>
      <trkpt lat="45.06466" lon="5.16477">
        <ele>165</ele>
        <time>2017-02-28T05:46:54Z</time>
      </trkpt>
      <trkpt lat="45.06431" lon="5.16456">
        <ele>165</ele>
        <time>2017-02-28T05:48:54Z</time>
      </trkpt>
      <trkpt lat="45.064" lon="5.16446">
        <ele>166</ele>
        <time>2017-02-28T05:50:54Z</time>
      </trkpt>
      <trkpt lat="45.06354" lon="5.16455">
        <ele>166</ele>
        <time>2017-02-28T05:52:54Z</time>
      </trkpt>
      <trkpt lat="45.06335" lon="5.16447">
        <ele>165</ele>
        <time>2017-02-28T05:54:54Z</time>
      </trkpt>
      <trkpt lat="45.06316" lon="5.16436">
        <ele>165</ele>
        <time>2017-02-28T05:56:54Z</time>
      </trkpt>
      <trkpt lat="45.06252" lon="5.16412">
        <ele>167</ele>
        <time>2017-02-28T05:58:54Z</time>
      </trkpt>
      <trkpt lat="45.06196" lon="5.16394">
        <ele>165</ele>
        <time>2017-02-28T06:00:54Z</time>
      </trkpt>
      <trkpt lat="45.06146" lon="5.16386">
        <ele>165</ele>
        <time>2017-02-28T06:02:54Z</time>
      </trkpt>
      <trkpt lat="45.06122" lon="5.16383">
        <ele>164</ele>
        <time>2017-02-28T06:04:54Z</time>
      </trkpt>
      <trkpt lat="45.06072" lon="5.16387">
        <ele>164</ele>
        <time>2017-02-28T06:06:54Z</time>
      </trkpt>
      <trkpt lat="45.06013" lon="5.16394">
        <ele>166</ele>
        <time>2017-02-28T06:08:54Z</time>
      </trkpt>
      <trkpt lat="45.05919" lon="5.16398">
        <ele>163</ele>
        <time>2017-02-28T06:10:54Z</time>
      </trkpt>
      <trkpt lat="45.05872" lon="5.16389">
        <ele>160</ele>
        <time>2017-02-28T06:12:54Z</time>
      </trkpt>
      <trkpt lat="45.05793" lon="5.16377">
        <ele>158</ele>
        <time>2017-02-28T06:14:54Z</time>
      </trkpt>
      <trkpt lat="45.05704" lon="5.16357">
        <ele>160</ele>
        <time>2017-02-28T06:16:54Z</time>
      </trkpt>
      <trkpt lat="45.05648" lon="5.16341">
        <ele>161</ele>
        <time>2017-02-28T06:18:54Z</time>
      </trkpt>
      <trkpt lat="45.05629" lon="5.16327">
        <ele>160</ele>
        <time>2017-02-28T06:20:54Z</time>
      </trkpt>
      <trkpt lat="45.05645" lon="5.1612">
        <ele>163</ele>
        <time>2017-02-28T06:22:54Z</time>
      </trkpt>
      <trkpt lat="45.05674" lon="5.16125">
        <ele>164</ele>
        <time>2017-02-28T06:24:54Z</time>
      </trkpt>
      <trkpt lat="45.05738" lon="5.16115">
        <ele>167</ele>
        <time>2017-02-28T06:26:54Z</time>
      </trkpt>
      <trkpt lat="45.05781" lon="5.16102">
        <ele>167</ele>
        <time>2017-02-28T06:28:54Z</time>
      </trkpt>
      <trkpt lat="45.05808" lon="5.16082">
        <ele>169</ele>
        <time>2017-02-28T06:30:54Z</time>
      </trkpt>
      <trkpt lat="45.05854" lon="5.16053">
        <ele>171</ele>
        <time>2017-02-28T06:32:54Z</time>
      </trkpt>
      <trkpt lat="45.05879" lon="5.16044">
        <ele>171</ele>
        <time>2017-02-28T06:34:54Z</time>
      </trkpt>
      <trkpt lat="45.05944" lon="5.16028">
        <ele>171</ele>
        <time>2017-02-28T06:36:54Z</time>
      </trkpt>
      <trkpt lat="45.05986" lon="5.15973">
        <ele>175</ele>
        <time>2017-02-28T06:38:54Z</time>
      </trkpt>
      <trkpt lat="45.06042" lon="5.15892">
        <ele>180</ele>
        <time>2017-02-28T06:40:54Z</time>
      </trkpt>
      <trkpt lat="45.06062" lon="5.15856">
        <ele>183</ele>
        <time>2017-02-28T06:42:54Z</time>
      </trkpt>
      <trkpt lat="45.06105" lon="5.15763">
        <ele>183</ele>
        <time>2017-02-28T06:44:54Z</time>
      </trkpt>
      <trkpt lat="45.06151" lon="5.15671">
        <ele>181</ele>
        <time>2017-02-28T06:46:54Z</time>
      </trkpt>
      <trkpt lat="45.06206" lon="5.15564">
        <ele>181</ele>
        <time>2017-02-28T06:48:54Z</time>
      </trkpt>
      <trkpt lat="45.06194" lon="5.15547">
        <ele>182</ele>
        <time>2017-02-28T06:50:54Z</time>
      </trkpt>
      <trkpt lat="45.06088" lon="5.15394">
        <ele>180</ele>
        <time>2017-02-28T06:52:54Z</time>
      </trkpt>
      <trkpt lat="45.06049" lon="5.15337">
        <ele>181</ele>
        <time>2017-02-28T06:54:54Z</time>
      </trkpt>
      <trkpt lat="45.06022" lon="5.1537">
        <ele>181</ele>
        <time>2017-02-28T06:56:54Z</time>
      </trkpt>
      <trkpt lat="45.05997" lon="5.15395">
        <ele>181</ele>
        <time>2017-02-28T06:58:54Z</time>
      </trkpt>
      <trkpt lat="45.05944" lon="5.15423">
        <ele>181</ele>
        <time>2017-02-28T07:00:54Z</time>
      </trkpt>
      <trkpt lat="45.05911" lon="5.1545">
        <ele>181</ele>
        <time>2017-02-28T07:02:54Z</time>
      </trkpt>
      <trkpt lat="45.05812" lon="5.15346">
        <ele>182</ele>
        <time>2017-02-28T07:04:54Z</time>
      </trkpt>
      <trkpt lat="45.05719" lon="5.15263">
        <ele>180</ele>
        <time>2017-02-28T07:06:54Z</time>
      </trkpt>
      <trkpt lat="45.05763" lon="5.15219">
        <ele>181</ele>
        <time>2017-02-28T07:08:54Z</time>
      </trkpt>
      <trkpt lat="45.05821" lon="5.15195">
        <ele>180</ele>
        <time>2017-02-28T07:10:54Z</time>
      </trkpt>
      <trkpt lat="45.05884" lon="5.15121">
        <ele>179</ele>
        <time>2017-02-28T07:12:54Z</time>
      </trkpt>
      <trkpt lat="45.05668" lon="5.14874">
        <ele>178</ele>
        <time>2017-02-28T07:14:54Z</time>
      </trkpt>
      <trkpt lat="45.05655" lon="5.14852">
        <ele>178</ele>
        <time>2017-02-28T07:16:54Z</time>
      </trkpt>
      <trkpt lat="45.05668" lon="5.14813">
        <ele>178</ele>
        <time>2017-02-28T07:18:54Z</time>
      </trkpt>
      <trkpt lat="45.05741" lon="5.14672">
        <ele>179</ele>
        <time>2017-02-28T07:20:54Z</time>
      </trkpt>
      <trkpt lat="45.05742" lon="5.14651">
        <ele>179</ele>
        <time>2017-02-28T07:22:54Z</time>
      </trkpt>
      <trkpt lat="45.05676" lon="5.14564">
        <ele>178</ele>
        <time>2017-02-28T07:24:54Z</time>
      </trkpt>
      <trkpt lat="45.05618" lon="5.14498">
        <ele>178</ele>
        <time>2017-02-28T07:26:54Z</time>
      </trkpt>
      <trkpt lat="45.05593" lon="5.14474">
        <ele>178</ele>
        <time>2017-02-28T07:28:54Z</time>
      </trkpt>
      <trkpt lat="45.05527" lon="5.14412">
        <ele>177</ele>
        <time>2017-02-28T07:30:54Z</time>
      </trkpt>
      <trkpt lat="45.05447" lon="5.14297">
        <ele>175</ele>
        <time>2017-02-28T07:32:54Z</time>
      </trkpt>
      <trkpt lat="45.05439" lon="5.14231">
        <ele>175</ele>
        <time>2017-02-28T07:34:54Z</time>
      </trkpt>
      <trkpt lat="45.05406" lon="5.14034">
        <ele>175</ele>
        <time>2017-02-28T07:36:54Z</time>
      </trkpt>
      <trkpt lat="45.05356" lon="5.13701">
        <ele>173</ele>
        <time>2017-02-28T07:38:54Z</time>
      </trkpt>
      <trkpt lat="45.05329" lon="5.13517">
        <ele>175</ele>
        <time>2017-02-28T07:40:54Z</time>
      </trkpt>
      <trkpt lat="45.05321" lon="5.13481">
        <ele>175</ele>
        <time>2017-02-28T07:42:54Z</time>
      </trkpt>
      <trkpt lat="45.05284" lon="5.13389">
        <ele>175</ele>
        <time>2017-02-28T07:44:54Z</time>
      </trkpt>
      <trkpt lat="45.05284" lon="5.13324">
        <ele>175</ele>
        <time>2017-02-28T07:46:54Z</time>
      </trkpt>
      <trkpt lat="45.05286" lon="5.13192">
        <ele>176</ele>
        <time>2017-02-28T07:48:54Z</time>
      </trkpt>
      <trkpt lat="45.05277" lon="5.13094">
        <ele>177</ele>
        <time>2017-02-28T07:50:54Z</time>
      </trkpt>
      <trkpt lat="45.05279" lon="5.12991">
        <ele>177</ele>
        <time>2017-02-28T07:52:54Z</time>
      </trkpt>
      <trkpt lat="45.05284" lon="5.12823">
        <ele>177</ele>
        <time>2017-02-28T07:54:54Z</time>
      </trkpt>
      <trkpt lat="45.05282" lon="5.12652">
        <ele>177</ele>
        <time>2017-02-28T07:56:54Z</time>
      </trkpt>
      <trkpt lat="45.05284" lon="5.12524">
        <ele>174</ele>
        <time>2017-02-28T07:58:54Z</time>
      </trkpt>
      <trkpt lat="45.05301" lon="5.12411">
        <ele>173</ele>
        <time>2017-02-28T08:00:54Z</time>
      </trkpt>
      <trkpt lat="45.05296" lon="5.12304">
        <ele>173</ele>
        <time>2017-02-28T08:02:54Z</time>
      </trkpt>
      <trkpt lat="45.05293" lon="5.1211">
        <ele>174</ele>
        <time>2017-02-28T08:04:54Z</time>
      </trkpt>
      <trkpt lat="45.053" lon="5.1208">
        <ele>174</ele>
        <time>2017-02-28T08:06:54Z</time>
      </trkpt>
      <trkpt lat="45.05332" lon="5.11965">
        <ele>174</ele>
        <time>2017-02-28T08:08:54Z</time>
      </trkpt>
      <trkpt lat="45.05341" lon="5.11912">
        <ele>173</ele>
        <time>2017-02-28T08:10:54Z</time>
      </trkpt>
      <trkpt lat="45.05335" lon="5.1186">
        <ele>174</ele>
        <time>2017-02-28T08:12:54Z</time>
      </trkpt>
      <trkpt lat="45.05291" lon="5.11599">
        <ele>173</ele>
        <time>2017-02-28T08:14:54Z</time>
      </trkpt>
      <trkpt lat="45.05269" lon="5.11418">
        <ele>175</ele>
        <time>2017-02-28T08:16:54Z</time>
      </trkpt>
      <trkpt lat="45.05267" lon="5.11374">
        <ele>174</ele>
        <time>2017-02-28T08:18:54Z</time>
      </trkpt>
      <trkpt lat="45.05277" lon="5.11297">
        <ele>174</ele>
        <time>2017-02-28T08:20:54Z</time>
      </trkpt>
      <trkpt lat="45.05279" lon="5.11226">
        <ele>173</ele>
        <time>2017-02-28T08:22:54Z</time>
      </trkpt>
      <trkpt lat="45.05279" lon="5.11198">
        <ele>171</ele>
        <time>2017-02-28T08:24:54Z</time>
      </trkpt>
      <trkpt lat="45.0524" lon="5.11127">
        <ele>170</ele>
        <time>2017-02-28T08:26:54Z</time>
      </trkpt>
      <trkpt lat="45.05241" lon="5.11105">
        <ele>170</ele>
        <time>2017-02-28T08:28:54Z</time>
      </trkpt>
      <trkpt lat="45.05217" lon="5.11036">
        <ele>171</ele>
        <time>2017-02-28T08:30:54Z</time>
      </trkpt>
      <trkpt lat="45.0518" lon="5.10978">
        <ele>170</ele>
        <time>2017-02-28T08:32:54Z</time>
      </trkpt>
      <trkpt lat="45.05158" lon="5.10941">
        <ele>171</ele>
        <time>2017-02-28T08:34:54Z</time>
      </trkpt>
      <trkpt lat="45.05158" lon="5.1089">
        <ele>171</ele>
        <time>2017-02-28T08:36:54Z</time>
      </trkpt>
      <trkpt lat="45.05142" lon="5.10876">
        <ele>171</ele>
        <time>2017-02-28T08:38:54Z</time>
      </trkpt>
      <trkpt lat="45.0514" lon="5.10814">
        <ele>172</ele>
        <time>2017-02-28T08:40:54Z</time>
      </trkpt>
      <trkpt lat="45.05135" lon="5.10741">
        <ele>173</ele>
        <time>2017-02-28T08:42:54Z</time>
      </trkpt>
      <trkpt lat="45.0509" lon="5.10732">
        <ele>174</ele>
        <time>2017-02-28T08:44:54Z</time>
      </trkpt>
      <trkpt lat="45.05077" lon="5.10738">
        <ele>174</ele>
        <time>2017-02-28T08:46:54Z</time>
      </trkpt>
      <trkpt lat="45.05056" lon="5.10884">
        <ele>170</ele>
        <time>2017-02-28T08:48:54Z</time>
      </trkpt>
      <trkpt lat="45.05045" lon="5.10902">
        <ele>170</ele>
        <time>2017-02-28T08:50:54Z</time>
      </trkpt>
      <trkpt lat="45.05014" lon="5.10887">
        <ele>169</ele>
        <time>2017-02-28T08:52:54Z</time>
      </trkpt>
      <trkpt lat="45.04977" lon="5.10874">
        <ele>169</ele>
        <time>2017-02-28T08:54:54Z</time>
      </trkpt>
      <trkpt lat="45.04951" lon="5.10852">
        <ele>169</ele>
        <time>2017-02-28T08:56:54Z</time>
      </trkpt>
      <trkpt lat="45.04925" lon="5.10826">
        <ele>169</ele>
        <time>2017-02-28T08:58:54Z</time>
      </trkpt>
      <trkpt lat="45.04884" lon="5.10816">
        <ele>169</ele>
        <time>2017-02-28T09:00:54Z</time>
      </trkpt>
      <trkpt lat="45.04856" lon="5.10816">
        <ele>169</ele>
        <time>2017-02-28T09:02:54Z</time>
      </trkpt>
      <trkpt lat="45.04829" lon="5.10835">
        <ele>168</ele>
        <time>2017-02-28T09:04:54Z</time>
      </trkpt>
      <trkpt lat="45.04792" lon="5.10825">
        <ele>169</ele>
        <time>2017-02-28T09:06:54Z</time>
      </trkpt>
      <trkpt lat="45.04765" lon="5.10831">
        <ele>169</ele>
        <time>2017-02-28T09:08:54Z</time>
      </trkpt>
      <trkpt lat="45.0474" lon="5.10823">
        <ele>169</ele>
        <time>2017-02-28T09:10:54Z</time>
      </trkpt>
      <trkpt lat="45.04703" lon="5.10827">
        <ele>169</ele>
        <time>2017-02-28T09:12:54Z</time>
      </trkpt>
      <trkpt lat="45.04647" lon="5.10816">
        <ele>169</ele>
        <time>2017-02-28T09:14:54Z</time>
      </trkpt>
      <trkpt lat="45.04623" lon="5.108">
        <ele>170</ele>
        <time>2017-02-28T09:16:54Z</time>
      </trkpt>
      <trkpt lat="45.04574" lon="5.1075">
        <ele>172</ele>
        <time>2017-02-28T09:18:54Z</time>
      </trkpt>
      <trkpt lat="45.04532" lon="5.10705">
        <ele>172</ele>
        <time>2017-02-28T09:20:54Z</time>
      </trkpt>
      <trkpt lat="45.04492" lon="5.10656">
        <ele>171</ele>
        <time>2017-02-28T09:22:54Z</time>
      </trkpt>
      <trkpt lat="45.04435" lon="5.10565">
        <ele>168</ele>
        <time>2017-02-28T09:24:54Z</time>
      </trkpt>
      <trkpt lat="45.0439" lon="5.10492">
        <ele>166</ele>
        <time>2017-02-28T09:26:54Z</time>
      </trkpt>
      <trkpt lat="45.0432" lon="5.1041">
        <ele>166</ele>
        <time>2017-02-28T09:28:54Z</time>
      </trkpt>
      <trkpt lat="45.04293" lon="5.10365">
        <ele>167</ele>
        <time>2017-02-28T09:30:54Z</time>
      </trkpt>
      <trkpt lat="45.04258" lon="5.10311">
        <ele>165</ele>
        <time>2017-02-28T09:32:54Z</time>
      </trkpt>
      <trkpt lat="45.04206" lon="5.10252">
        <ele>164</ele>
        <time>2017-02-28T09:34:54Z</time>
      </trkpt>
      <trkpt lat="45.04159" lon="5.10208">
        <ele>163</ele>
        <time>2017-02-28T09:36:54Z</time>
      </trkpt>
      <trkpt lat="45.04113" lon="5.10162">
        <ele>161</ele>
        <time>2017-02-28T09:38:54Z</time>
      </trkpt>
      <trkpt lat="45.04076" lon="5.10119">
        <ele>161</ele>
        <time>2017-02-28T09:40:54Z</time>
      </trkpt>
      <trkpt lat="45.04046" lon="5.10077">
        <ele>161</ele>
        <time>2017-02-28T09:42:54Z</time>
      </trkpt>
      <trkpt lat="45.04043" lon="5.10045">
        <ele>159</ele>
        <time>2017-02-28T09:44:54Z</time>
      </trkpt>
      <trkpt lat="45.0405" lon="5.09978">
        <ele>160</ele>
        <time>2017-02-28T09:46:54Z</time>
      </trkpt>
      <trkpt lat="45.04055" lon="5.09902">
        <ele>163</ele>
        <time>2017-02-28T09:48:54Z</time>
      </trkpt>
      <trkpt lat="45.04063" lon="5.09832">
        <ele>161</ele>
        <time>2017-02-28T09:50:54Z</time>
      </trkpt>
      <trkpt lat="45.04068" lon="5.09792">
        <ele>160</ele>
        <time>2017-02-28T09:52:54Z</time>
      </trkpt>
      <trkpt lat="45.04073" lon="5.09733">
        <ele>160</ele>
        <time>2017-02-28T09:54:54Z</time>
      </trkpt>
      <trkpt lat="45.0407" lon="5.09679">
        <ele>160</ele>
        <time>2017-02-28T09:56:54Z</time>
      </trkpt>
      <trkpt lat="45.04069" lon="5.09632">
        <ele>159</ele>
        <time>2017-02-28T09:58:54Z</time>
      </trkpt>
      <trkpt lat="45.0407" lon="5.09559">
        <ele>157</ele>
        <time>2017-02-28T10:00:54Z</time>
      </trkpt>
      <trkpt lat="45.04083" lon="5.09473">
        <ele>156</ele>
        <time>2017-02-28T10:02:54Z</time>
      </trkpt>
      <trkpt lat="45.0414" lon="5.09427">
        <ele>160</ele>
        <time>2017-02-28T10:04:54Z</time>
      </trkpt>
      <trkpt lat="45.04184" lon="5.0949">
        <ele>168</ele>
        <time>2017-02-28T10:06:54Z</time>
      </trkpt>
      <trkpt lat="45.04212" lon="5.09538">
        <ele>169</ele>
        <time>2017-02-28T10:08:54Z</time>
      </trkpt>
      <trkpt lat="45.04226" lon="5.0956">
        <ele>169</ele>
        <time>2017-02-28T10:10:54Z</time>
      </trkpt>
      <trkpt lat="45.04237" lon="5.0957">
        <ele>170</ele>
        <time>2017-02-28T10:12:54Z</time>
      </trkpt>
      <trkpt lat="45.04253" lon="5.09569">
        <ele>170</ele>
        <time>2017-02-28T10:14:54Z</time>
      </trkpt>
      <trkpt lat="45.04259" lon="5.09555">
        <ele>170</ele>
        <time>2017-02-28T10:16:54Z</time>
      </trkpt>
      <trkpt lat="45.04253" lon="5.0952">
        <ele>170</ele>
        <time>2017-02-28T10:18:54Z</time>
      </trkpt>
      <trkpt lat="45.04253" lon="5.09496">
        <ele>170</ele>
        <time>2017-02-28T10:20:54Z</time>
      </trkpt>
      <trkpt lat="45.0423" lon="5.09485">
        <ele>169</ele>
        <time>2017-02-28T10:22:54Z</time>
      </trkpt>
      <trkpt lat="45.04202" lon="5.09473">
        <ele>168</ele>
        <time>2017-02-28T10:24:54Z</time>
      </trkpt>
      <trkpt lat="45.04175" lon="5.09441">
        <ele>165</ele>
        <time>2017-02-28T10:26:54Z</time>
      </trkpt>
      <trkpt lat="45.04152" lon="5.09407">
        <ele>161</ele>
        <time>2017-02-28T10:28:54Z</time>
      </trkpt>
      <trkpt lat="45.04141" lon="5.09327">
        <ele>155</ele>
        <time>2017-02-28T10:30:54Z</time>
      </trkpt>
      <trkpt lat="45.04143" lon="5.09285">
        <ele>156</ele>
        <time>2017-02-28T10:32:54Z</time>
      </trkpt>
      <trkpt lat="45.04139" lon="5.0924">
        <ele>157</ele>
        <time>2017-02-28T10:34:54Z</time>
      </trkpt>
      <trkpt lat="45.04158" lon="5.09102">
        <ele>160</ele>
        <time>2017-02-28T10:36:54Z</time>
      </trkpt>
      <trkpt lat="45.04166" lon="5.09016">
        <ele>163</ele>
        <time>2017-02-28T10:38:54Z</time>
      </trkpt>
      <trkpt lat="45.04169" lon="5.08952">
        <ele>163</ele>
        <time>2017-02-28T10:40:54Z</time>
      </trkpt>
      <trkpt lat="45.04174" lon="5.08868">
        <ele>162</ele>
        <time>2017-02-28T10:42:54Z</time>
      </trkpt>
      <trkpt lat="45.04185" lon="5.08829">
        <ele>163</ele>
        <time>2017-02-28T10:44:54Z</time>
      </trkpt>
      <trkpt lat="45.04191" lon="5.08739">
        <ele>163</ele>
        <time>2017-02-28T10:46:54Z</time>
      </trkpt>
      <trkpt lat="45.04166" lon="5.08631">
        <ele>150</ele>
        <time>2017-02-28T10:48:54Z</time>
      </trkpt>
      <trkpt lat="45.04147" lon="5.08556">
        <ele>150</ele>
        <time>2017-02-28T10:50:54Z</time>
      </trkpt>
      <trkpt lat="45.04151" lon="5.08505">
        <ele>155</ele>
        <time>2017-02-28T10:52:54Z</time>
      </trkpt>
      <trkpt lat="45.04155" lon="5.08465">
        <ele>157</ele>
        <time>2017-02-28T10:54:54Z</time>
      </trkpt>
      <trkpt lat="45.04149" lon="5.08423">
        <ele>158</ele>
        <time>2017-02-28T10:56:54Z</time>
      </trkpt>
      <trkpt lat="45.04132" lon="5.08378">
        <ele>153</ele>
        <time>2017-02-28T10:58:54Z</time>
      </trkpt>
      <trkpt lat="45.04113" lon="5.08371">
        <ele>150</ele>
        <time>2017-02-28T11:00:54Z</time>
      </trkpt>
      <trkpt lat="45.04097" lon="5.08362">
        <ele>146</ele>
        <time>2017-02-28T11:02:54Z</time>
      </trkpt>
      <trkpt lat="45.04086" lon="5.0835">
        <ele>144</ele>
        <time>2017-02-28T11:04:54Z</time>
      </trkpt>
      <trkpt lat="45.04079" lon="5.08326">
        <ele>144</ele>
        <time>2017-02-28T11:06:54Z</time>
      </trkpt>
      <trkpt lat="45.04079" lon="5.08317">
        <ele>144</ele>
        <time>2017-02-28T11:08:54Z</time>
      </trkpt>
      <trkpt lat="45.04072" lon="5.08307">
        <ele>144</ele>
        <time>2017-02-28T11:10:54Z</time>
      </trkpt>
      <trkpt lat="45.04057" lon="5.08262">
        <ele>144</ele>
        <time>2017-02-28T11:12:54Z</time>
      </trkpt>
      <trkpt lat="45.04043" lon="5.08216">
        <ele>144</ele>
        <time>2017-02-28T11:14:54Z</time>
      </trkpt>
      <trkpt lat="45.04035" lon="5.08173">
        <ele>144</ele>
        <time>2017-02-28T11:16:54Z</time>
      </trkpt>
      <trkpt lat="45.04027" lon="5.08119">
        <ele>144</ele>
        <time>2017-02-28T11:18:54Z</time>
      </trkpt>
      <trkpt lat="45.04003" lon="5.08002">
        <ele>143</ele>
        <time>2017-02-28T11:20:54Z</time>
      </trkpt>
      <trkpt lat="45.03984" lon="5.07838">
        <ele>143</ele>
        <time>2017-02-28T11:22:54Z</time>
      </trkpt>
      <trkpt lat="45.03959" lon="5.0765">
        <ele>144</ele>
        <time>2017-02-28T11:24:54Z</time>
      </trkpt>
      <trkpt lat="45.03951" lon="5.07583">
        <ele>145</ele>
        <time>2017-02-28T11:26:54Z</time>
      </trkpt>
      <trkpt lat="45.03942" lon="5.07514">
        <ele>144</ele>
        <time>2017-02-28T11:28:54Z</time>
      </trkpt>
      <trkpt lat="45.03938" lon="5.07444">
        <ele>143</ele>
        <time>2017-02-28T11:30:54Z</time>
      </trkpt>
      <trkpt lat="45.03935" lon="5.07359">
        <ele>142</ele>
        <time>2017-02-28T11:32:54Z</time>
      </trkpt>
      <trkpt lat="45.03932" lon="5.07282">
        <ele>143</ele>
        <time>2017-02-28T11:34:54Z</time>
      </trkpt>
      <trkpt lat="45.03932" lon="5.07222">
        <ele>144</ele>
        <time>2017-02-28T11:36:54Z</time>
      </trkpt>
      <trkpt lat="45.03928" lon="5.072">
        <ele>143</ele>
        <time>2017-02-28T11:38:54Z</time>
      </trkpt>
      <trkpt lat="45.03934" lon="5.07184">
        <ele>143</ele>
        <time>2017-02-28T11:40:54Z</time>
      </trkpt>
      <trkpt lat="45.03936" lon="5.07124">
        <ele>143</ele>
        <time>2017-02-28T11:42:54Z</time>
      </trkpt>
      <trkpt lat="45.03944" lon="5.07042">
        <ele>143</ele>
        <time>2017-02-28T11:44:54Z</time>
      </trkpt>
      <trkpt lat="45.0395" lon="5.06978">
        <ele>143</ele>
        <time>2017-02-28T11:46:54Z</time>
      </trkpt>
      <trkpt lat="45.03964" lon="5.06904">
        <ele>144</ele>
        <time>2017-02-28T11:48:54Z</time>
      </trkpt>
      <trkpt lat="45.0398" lon="5.06831">
        <ele>141</ele>
        <time>2017-02-28T11:50:54Z</time>
      </trkpt>
      <trkpt lat="45.03995" lon="5.0677">
        <ele>141</ele>
        <time>2017-02-28T11:52:54Z</time>
      </trkpt>
      <trkpt lat="45.04016" lon="5.06686">
        <ele>142</ele>
        <time>2017-02-28T11:54:54Z</time>
      </trkpt>
      <trkpt lat="45.04043" lon="5.06575">
        <ele>144</ele>
        <time>2017-02-28T11:56:54Z</time>
      </trkpt>
      <trkpt lat="45.04054" lon="5.06533">
        <ele>143</ele>
        <time>2017-02-28T11:58:54Z</time>
      </trkpt>
      <trkpt lat="45.04056" lon="5.06506">
        <ele>142</ele>
        <time>2017-02-28T12:00:54Z</time>
      </trkpt>
      <trkpt lat="45.04066" lon="5.06489">
        <ele>142</ele>
        <time>2017-02-28T12:02:54Z</time>
      </trkpt>
      <trkpt lat="45.04083" lon="5.06421">
        <ele>141</ele>
        <time>2017-02-28T12:04:54Z</time>
      </trkpt>
      <trkpt lat="45.04101" lon="5.06342">
        <ele>142</ele>
        <time>2017-02-28T12:06:54Z</time>
      </trkpt>
      <trkpt lat="45.04112" lon="5.06259">
        <ele>142</ele>
        <time>2017-02-28T12:08:54Z</time>
      </trkpt>
      <trkpt lat="45.04122" lon="5.06193">
        <ele>142</ele>
        <time>2017-02-28T12:10:54Z</time>
      </trkpt>
      <trkpt lat="45.0413" lon="5.06146">
        <ele>142</ele>
        <time>2017-02-28T12:12:54Z</time>
      </trkpt>
      <trkpt lat="45.04143" lon="5.06074">
        <ele>143</ele>
        <time>2017-02-28T12:14:54Z</time>
      </trkpt>
      <trkpt lat="45.04154" lon="5.06003">
        <ele>144</ele>
        <time>2017-02-28T12:16:54Z</time>
      </trkpt>
      <trkpt lat="45.04161" lon="5.05967">
        <ele>144</ele>
        <time>2017-02-28T12:18:54Z</time>
      </trkpt>
      <trkpt lat="45.04173" lon="5.05891">
        <ele>143</ele>
        <time>2017-02-28T12:20:54Z</time>
      </trkpt>
      <trkpt lat="45.04172" lon="5.05852">
        <ele>144</ele>
        <time>2017-02-28T12:22:54Z</time>
      </trkpt>
      <trkpt lat="45.04172" lon="5.05807">
        <ele>144</ele>
        <time>2017-02-28T12:24:54Z</time>
      </trkpt>
      <trkpt lat="45.04171" lon="5.05766">
        <ele>144</ele>
        <time>2017-02-28T12:26:54Z</time>
      </trkpt>
      <trkpt lat="45.04178" lon="5.0575">
        <ele>145</ele>
        <time>2017-02-28T12:28:54Z</time>
      </trkpt>
      <trkpt lat="45.04192" lon="5.05772">
        <ele>146</ele>
        <time>2017-02-28T12:30:54Z</time>
      </trkpt>
      <trkpt lat="45.04205" lon="5.05785">
        <ele>146</ele>
        <time>2017-02-28T12:32:54Z</time>
      </trkpt>
      <trkpt lat="45.04209" lon="5.05779">
        <ele>147</ele>
        <time>2017-02-28T12:34:54Z</time>
      </trkpt>
      <trkpt lat="45.04214" lon="5.05653">
        <ele>146</ele>
        <time>2017-02-28T12:36:54Z</time>
      </trkpt>
      <trkpt lat="45.0422" lon="5.05648">
        <ele>147</ele>
        <time>2017-02-28T12:38:54Z</time>
      </trkpt>
      <trkpt lat="45.04226" lon="5.05641">
        <ele>147</ele>
        <time>2017-02-28T12:40:54Z</time>
      </trkpt>
      <trkpt lat="45.04225" lon="5.05626">
        <ele>147</ele>
        <time>2017-02-28T12:42:54Z</time>
      </trkpt>
      <trkpt lat="45.04218" lon="5.05621">
        <ele>147</ele>
        <time>2017-02-28T12:44:54Z</time>
      </trkpt>
      <trkpt lat="45.04222" lon="5.05609">
        <ele>147</ele>
        <time>2017-02-28T12:46:54Z</time>
      </trkpt>
      <trkpt lat="45.04225" lon="5.05581">
        <ele>148</ele>
        <time>2017-02-28T12:48:54Z</time>
      </trkpt>
      <trkpt lat="45.0423" lon="5.05543">
        <ele>148</ele>
        <time>2017-02-28T12:50:54Z</time>
      </trkpt>
      <trkpt lat="45.0423" lon="5.05528">
        <ele>148</ele>
        <time>2017-02-28T12:52:54Z</time>
      </trkpt>
      <trkpt lat="45.04244" lon="5.0545">
        <ele>148</ele>
        <time>2017-02-28T12:54:54Z</time>
      </trkpt>
      <trkpt lat="45.04255" lon="5.0538">
        <ele>148</ele>
        <time>2017-02-28T12:56:54Z</time>
      </trkpt>
      <trkpt lat="45.04269" lon="5.05334">
        <ele>148</ele>
        <time>2017-02-28T12:58:54Z</time>
      </trkpt>
      <trkpt lat="45.04288" lon="5.05292">
        <ele>148</ele>
        <time>2017-02-28T13:00:54Z</time>
      </trkpt>
      <trkpt lat="45.043" lon="5.0525">
        <ele>149</ele>
        <time>2017-02-28T13:02:54Z</time>
      </trkpt>
      <trkpt lat="45.04302" lon="5.05201">
        <ele>148</ele>
        <time>2017-02-28T13:04:54Z</time>
      </trkpt>
      <trkpt lat="45.04301" lon="5.05154">
        <ele>148</ele>
        <time>2017-02-28T13:06:54Z</time>
      </trkpt>
      <trkpt lat="45.04289" lon="5.0515">
        <ele>147</ele>
        <time>2017-02-28T13:08:54Z</time>
      </trkpt>
      <trkpt lat="45.04292" lon="5.05103">
        <ele>148</ele>
        <time>2017-02-28T13:10:54Z</time>
      </trkpt>
      <trkpt lat="45.043" lon="5.05045">
        <ele>149</ele>
        <time>2017-02-28T13:12:54Z</time>
      </trkpt>
      <trkpt lat="45.04289" lon="5.04987">
        <ele>149</ele>
        <time>2017-02-28T13:14:54Z</time>
      </trkpt>
      <trkpt lat="45.04283" lon="5.0497">
        <ele>148</ele>
        <time>2017-02-28T13:16:54Z</time>
      </trkpt>
      <trkpt lat="45.04286" lon="5.04963">
        <ele>148</ele>
        <time>2017-02-28T13:18:54Z</time>
      </trkpt>
      <trkpt lat="45.04289" lon="5.04875">
        <ele>149</ele>
        <time>2017-02-28T13:20:54Z</time>
      </trkpt>
      <trkpt lat="45.04278" lon="5.04866">
        <ele>147</ele>
        <time>2017-02-28T13:22:54Z</time>
      </trkpt>
      <trkpt lat="45.0425" lon="5.04863">
        <ele>143</ele>
        <time>2017-02-28T13:24:54Z</time>
      </trkpt>
      <trkpt lat="45.0423" lon="5.0486">
        <ele>142</ele>
        <time>2017-02-28T13:26:54Z</time>
      </trkpt>
      <trkpt lat="45.04168" lon="5.04858">
        <ele>139</ele>
        <time>2017-02-28T13:28:54Z</time>
      </trkpt>
      <trkpt lat="45.04131" lon="5.04853">
        <ele>143</ele>
        <time>2017-02-28T13:30:54Z</time>
      </trkpt>
      <trkpt lat="45.04083" lon="5.04854">
        <ele>149</ele>
        <time>2017-02-28T13:32:54Z</time>
      </trkpt>
      <trkpt lat="45.04073" lon="5.0484">
        <ele>149</ele>
        <time>2017-02-28T13:34:54Z</time>
      </trkpt>
      <trkpt lat="45.04046" lon="5.04732">
        <ele>147</ele>
        <time>2017-02-28T13:36:54Z</time>
      </trkpt>
      <trkpt lat="45.0402" lon="5.04636">
        <ele>145</ele>
        <time>2017-02-28T13:38:54Z</time>
      </trkpt>
      <trkpt lat="45.04064" lon="5.04574">
        <ele>140</ele>
        <time>2017-02-28T13:40:54Z</time>
      </trkpt>
      <trkpt lat="45.04055" lon="5.04548">
        <ele>140</ele>
        <time>2017-02-28T13:42:54Z</time>
      </trkpt>
      <trkpt lat="45.0403" lon="5.04503">
        <ele>141</ele>
        <time>2017-02-28T13:44:54Z</time>
      </trkpt>
      <trkpt lat="45.04029" lon="5.04495">
        <ele>141</ele>
        <time>2017-02-28T13:46:54Z</time>
      </trkpt>
      <trkpt lat="45.04018" lon="5.04476">
        <ele>141</ele>
        <time>2017-02-28T13:48:54Z</time>
      </trkpt>
      <trkpt lat="45.04011" lon="5.0447">
        <ele>141</ele>
        <time>2017-02-28T13:50:54Z</time>
      </trkpt>
      <trkpt lat="45.03982" lon="5.04429">
        <ele>141</ele>
        <time>2017-02-28T13:52:54Z</time>
      </trkpt>
      <trkpt lat="45.03954" lon="5.04398">
        <ele>140</ele>
        <time>2017-02-28T13:54:54Z</time>
      </trkpt>
      <trkpt lat="45.03934" lon="5.04382">
        <ele>140</ele>
        <time>2017-02-28T13:56:54Z</time>
      </trkpt>
      <trkpt lat="45.03895" lon="5.04362">
        <ele>139</ele>
        <time>2017-02-28T13:58:54Z</time>
      </trkpt>
      <trkpt lat="45.03857" lon="5.04348">
        <ele>140</ele>
        <time>2017-02-28T14:00:54Z</time>
      </trkpt>
      <trkpt lat="45.03816" lon="5.04334">
        <ele>140</ele>
        <time>2017-02-28T14:02:54Z</time>
      </trkpt>
      <trkpt lat="45.03796" lon="5.0433">
        <ele>140</ele>
        <time>2017-02-28T14:04:54Z</time>
      </trkpt>
      <trkpt lat="45.03768" lon="5.04333">
        <ele>140</ele>
        <time>2017-02-28T14:06:54Z</time>
      </trkpt>
      <trkpt lat="45.03743" lon="5.0434">
        <ele>140</ele>
        <time>2017-02-28T14:08:54Z</time>
      </trkpt>
      <trkpt lat="45.03695" lon="5.04364">
        <ele>140</ele>
        <time>2017-02-28T14:10:54Z</time>
      </trkpt>
      <trkpt lat="45.03674" lon="5.04375">
        <ele>140</ele>
        <time>2017-02-28T14:12:54Z</time>
      </trkpt>
      <trkpt lat="45.03647" lon="5.04393">
        <ele>141</ele>
        <time>2017-02-28T14:14:54Z</time>
      </trkpt>
      <trkpt lat="45.03605" lon="5.04418">
        <ele>140</ele>
        <time>2017-02-28T14:16:54Z</time>
      </trkpt>
      <trkpt lat="45.03565" lon="5.04445">
        <ele>140</ele>
        <time>2017-02-28T14:18:54Z</time>
      </trkpt>
      <trkpt lat="45.03509" lon="5.04487">
        <ele>142</ele>
        <time>2017-02-28T14:20:54Z</time>
      </trkpt>
      <trkpt lat="45.03465" lon="5.04517">
        <ele>142</ele>
        <time>2017-02-28T14:22:54Z</time>
      </trkpt>
      <trkpt lat="45.03435" lon="5.04527">
        <ele>141</ele>
        <time>2017-02-28T14:24:54Z</time>
      </trkpt>
      <trkpt lat="45.03353" lon="5.04557">
        <ele>142</ele>
        <time>2017-02-28T14:26:54Z</time>
      </trkpt>
      <trkpt lat="45.03342" lon="5.0456">
        <ele>142</ele>
        <time>2017-02-28T14:28:54Z</time>
      </trkpt>
      <trkpt lat="45.03319" lon="5.0457">
        <ele>142</ele>
        <time>2017-02-28T14:30:54Z</time>
      </trkpt>
      <trkpt lat="45.03301" lon="5.04573">
        <ele>141</ele>
        <time>2017-02-28T14:32:54Z</time>
      </trkpt>
      <trkpt lat="45.03287" lon="5.04497">
        <ele>138</ele>
        <time>2017-02-28T14:34:54Z</time>
      </trkpt>
      <trkpt lat="45.03278" lon="5.04443">
        <ele>138</ele>
        <time>2017-02-28T14:36:54Z</time>
      </trkpt>
      <trkpt lat="45.03268" lon="5.04386">
        <ele>141</ele>
        <time>2017-02-28T14:38:54Z</time>
      </trkpt>
      <trkpt lat="45.03264" lon="5.0436">
        <ele>143</ele>
        <time>2017-02-28T14:40:54Z</time>
      </trkpt>
      <trkpt lat="45.0326" lon="5.04345">
        <ele>144</ele>
        <time>2017-02-28T14:42:54Z</time>
      </trkpt>
      <trkpt lat="45.03248" lon="5.04343">
        <ele>144</ele>
        <time>2017-02-28T14:44:54Z</time>
      </trkpt>
      <trkpt lat="45.0324" lon="5.04347">
        <ele>143</ele>
        <time>2017-02-28T14:46:54Z</time>
      </trkpt>
      <trkpt lat="45.03199" lon="5.04386">
        <ele>139</ele>
        <time>2017-02-28T14:48:54Z</time>
      </trkpt>
      <trkpt lat="45.03192" lon="5.04391">
        <ele>138</ele>
        <time>2017-02-28T14:50:54Z</time>
      </trkpt>
      <trkpt lat="45.03184" lon="5.04389">
        <ele>138</ele>
        <time>2017-02-28T14:52:54Z</time>
      </trkpt>
      <trkpt lat="45.03175" lon="5.04384">
        <ele>138</ele>
        <time>2017-02-28T14:54:54Z</time>
      </trkpt>
      <trkpt lat="45.03168" lon="5.04388">
        <ele>138</ele>
        <time>2017-02-28T14:56:54Z</time>
      </trkpt>
      <trkpt lat="45.03138" lon="5.04395">
        <ele>138</ele>
        <time>2017-02-28T14:58:54Z</time>
      </trkpt>
      <trkpt lat="45.03117" lon="5.04381">
        <ele>138</ele>
        <time>2017-02-28T15:00:54Z</time>
      </trkpt>
      <trkpt lat="45.03087" lon="5.04353">
        <ele>139</ele>
        <time>2017-02-28T15:02:54Z</time>
      </trkpt>
      <trkpt lat="45.03038" lon="5.04331">
        <ele>142</ele>
        <time>2017-02-28T15:04:54Z</time>
      </trkpt>
      <trkpt lat="45.03006" lon="5.04308">
        <ele>142</ele>
        <time>2017-02-28T15:06:54Z</time>
      </trkpt>
      <trkpt lat="45.02978" lon="5.04285">
        <ele>141</ele>
        <time>2017-02-28T15:08:54Z</time>
      </trkpt>
      <trkpt lat="45.02946" lon="5.04251">
        <ele>141</ele>
        <time>2017-02-28T15:10:54Z</time>
      </trkpt>
      <trkpt lat="45.02931" lon="5.04212">
        <ele>140</ele>
        <time>2017-02-28T15:12:54Z</time>
      </trkpt>
      <trkpt lat="45.02901" lon="5.04166">
        <ele>139</ele>
        <time>2017-02-28T15:14:54Z</time>
      </trkpt>
      <trkpt lat="45.02862" lon="5.04086">
        <ele>138</ele>
        <time>2017-02-28T15:16:54Z</time>
      </trkpt>
      <trkpt lat="45.02839" lon="5.0403">
        <ele>139</ele>
        <time>2017-02-28T15:18:54Z</time>
      </trkpt>
      <trkpt lat="45.02827" lon="5.03986">
        <ele>140</ele>
        <time>2017-02-28T15:20:54Z</time>
      </trkpt>
      <trkpt lat="45.02821" lon="5.03935">
        <ele>140</ele>
        <time>2017-02-28T15:22:54Z</time>
      </trkpt>
      <trkpt lat="45.02815" lon="5.03879">
        <ele>141</ele>
        <time>2017-02-28T15:24:54Z</time>
      </trkpt>
      <trkpt lat="45.02802" lon="5.038">
        <ele>141</ele>
        <time>2017-02-28T15:26:54Z</time>
      </trkpt>
      <trkpt lat="45.02804" lon="5.03769">
        <ele>141</ele>
        <time>2017-02-28T15:28:54Z</time>
      </trkpt>
      <trkpt lat="45.02804" lon="5.03744">
        <ele>141</ele>
        <time>2017-02-28T15:30:54Z</time>
      </trkpt>
      <trkpt lat="45.02796" lon="5.03707">
        <ele>142</ele>
        <time>2017-02-28T15:32:54Z</time>
      </trkpt>
      <trkpt lat="45.0279" lon="5.03683">
        <ele>143</ele>
        <time>2017-02-28T15:34:54Z</time>
      </trkpt>
      <trkpt lat="45.02784" lon="5.03648">
        <ele>144</ele>
        <time>2017-02-28T15:36:54Z</time>
      </trkpt>
      <trkpt lat="45.02783" lon="5.03599">
        <ele>145</ele>
        <time>2017-02-28T15:38:54Z</time>
      </trkpt>
      <trkpt lat="45.02775" lon="5.03544">
        <ele>145</ele>
        <time>2017-02-28T15:40:54Z</time>
      </trkpt>
      <trkpt lat="45.02775" lon="5.03456">
        <ele>146</ele>
        <time>2017-02-28T15:42:54Z</time>
      </trkpt>
      <trkpt lat="45.02778" lon="5.03345">
        <ele>144</ele>
        <time>2017-02-28T15:44:54Z</time>
      </trkpt>
      <trkpt lat="45.02787" lon="5.03264">
        <ele>142</ele>
        <time>2017-02-28T15:46:54Z</time>
      </trkpt>
      <trkpt lat="45.02786" lon="5.03239">
        <ele>141</ele>
        <time>2017-02-28T15:48:54Z</time>
      </trkpt>
      <trkpt lat="45.02793" lon="5.03217">
        <ele>141</ele>
        <time>2017-02-28T15:50:54Z</time>
      </trkpt>
      <trkpt lat="45.02794" lon="5.03178">
        <ele>140</ele>
        <time>2017-02-28T15:52:54Z</time>
      </trkpt>
      <trkpt lat="45.02853" lon="5.02883">
        <ele>148</ele>
        <time>2017-02-28T15:54:54Z</time>
      </trkpt>
      <trkpt lat="45.02877" lon="5.02793">
        <ele>145</ele>
        <time>2017-02-28T15:56:54Z</time>
      </trkpt>
      <trkpt lat="45.0289" lon="5.0272">
        <ele>142</ele>
        <time>2017-02-28T15:58:54Z</time>
      </trkpt>
      <trkpt lat="45.0291" lon="5.02639">
        <ele>141</ele>
        <time>2017-02-28T16:00:54Z</time>
      </trkpt>
      <trkpt lat="45.02924" lon="5.02574">
        <ele>140</ele>
        <time>2017-02-28T16:02:54Z</time>
      </trkpt>
      <trkpt lat="45.02942" lon="5.02526">
        <ele>140</ele>
        <time>2017-02-28T16:04:54Z</time>
      </trkpt>
      <trkpt lat="45.02965" lon="5.02446">
        <ele>141</ele>
        <time>2017-02-28T16:06:54Z</time>
      </trkpt>
      <trkpt lat="45.02993" lon="5.02355">
        <ele>141</ele>
        <time>2017-02-28T16:08:54Z</time>
      </trkpt>
      <trkpt lat="45.03015" lon="5.0228">
        <ele>140</ele>
        <time>2017-02-28T16:10:54Z</time>
      </trkpt>
      <trkpt lat="45.03038" lon="5.0222">
        <ele>140</ele>
        <time>2017-02-28T16:12:54Z</time>
      </trkpt>
      <trkpt lat="45.03055" lon="5.02157">
        <ele>139</ele>
        <time>2017-02-28T16:14:54Z</time>
      </trkpt>
      <trkpt lat="45.03073" lon="5.02116">
        <ele>139</ele>
        <time>2017-02-28T16:16:54Z</time>
      </trkpt>
      <trkpt lat="45.03084" lon="5.02085">
        <ele>139</ele>
        <time>2017-02-28T16:18:54Z</time>
      </trkpt>
      <trkpt lat="45.03087" lon="5.02059">
        <ele>138</ele>
        <time>2017-02-28T16:20:54Z</time>
      </trkpt>
      <trkpt lat="45.03108" lon="5.02003">
        <ele>137</ele>
        <time>2017-02-28T16:22:54Z</time>
      </trkpt>
      <trkpt lat="45.03129" lon="5.01956">
        <ele>137</ele>
        <time>2017-02-28T16:24:54Z</time>
      </trkpt>
      <trkpt lat="45.03148" lon="5.01895">
        <ele>139</ele>
        <time>2017-02-28T16:26:54Z</time>
      </trkpt>
      <trkpt lat="45.03164" lon="5.01875">
        <ele>140</ele>
        <time>2017-02-28T16:28:54Z</time>
      </trkpt>
      <trkpt lat="45.03193" lon="5.01811">
        <ele>140</ele>
        <time>2017-02-28T16:30:54Z</time>
      </trkpt>
      <trkpt lat="45.03215" lon="5.01769">
        <ele>138</ele>
        <time>2017-02-28T16:32:54Z</time>
      </trkpt>
      <trkpt lat="45.03234" lon="5.01731">
        <ele>138</ele>
        <time>2017-02-28T16:34:54Z</time>
      </trkpt>
      <trkpt lat="45.03257" lon="5.01687">
        <ele>139</ele>
        <time>2017-02-28T16:36:54Z</time>
      </trkpt>
      <trkpt lat="45.03267" lon="5.01666">
        <ele>140</ele>
        <time>2017-02-28T16:38:54Z</time>
      </trkpt>
      <trkpt lat="45.03286" lon="5.01645">
        <ele>141</ele>
        <time>2017-02-28T16:40:54Z</time>
      </trkpt>
      <trkpt lat="45.03301" lon="5.01594">
        <ele>141</ele>
        <time>2017-02-28T16:42:54Z</time>
      </trkpt>
      <trkpt lat="45.03322" lon="5.01533">
        <ele>139</ele>
        <time>2017-02-28T16:44:54Z</time>
      </trkpt>
      <trkpt lat="45.03334" lon="5.01521">
        <ele>139</ele>
        <time>2017-02-28T16:46:54Z</time>
      </trkpt>
      <trkpt lat="45.03354" lon="5.01526">
        <ele>143</ele>
        <time>2017-02-28T16:48:54Z</time>
      </trkpt>
      <trkpt lat="45.03367" lon="5.01516">
        <ele>145</ele>
        <time>2017-02-28T16:50:54Z</time>
      </trkpt>
      <trkpt lat="45.03375" lon="5.01487">
        <ele>145</ele>
        <time>2017-02-28T16:52:54Z</time>
      </trkpt>
      <trkpt lat="45.03387" lon="5.01454">
        <ele>146</ele>
        <time>2017-02-28T16:54:54Z</time>
      </trkpt>
      <trkpt lat="45.03412" lon="5.01407">
        <ele>148</ele>
        <time>2017-02-28T16:56:54Z</time>
      </trkpt>
      <trkpt lat="45.03428" lon="5.01362">
        <ele>146</ele>
        <time>2017-02-28T16:58:54Z</time>
      </trkpt>
      <trkpt lat="45.03427" lon="5.01321">
        <ele>144</ele>
        <time>2017-02-28T17:00:54Z</time>
      </trkpt>
      <trkpt lat="45.03436" lon="5.01263">
        <ele>146</ele>
        <time>2017-02-28T17:02:54Z</time>
      </trkpt>
      <trkpt lat="45.03449" lon="5.01244">
        <ele>148</ele>
        <time>2017-02-28T17:04:54Z</time>
      </trkpt>
      <trkpt lat="45.0345" lon="5.01225">
        <ele>149</ele>
        <time>2017-02-28T17:06:54Z</time>
      </trkpt>
      <trkpt lat="45.03462" lon="5.01162">
        <ele>151</ele>
        <time>2017-02-28T17:08:54Z</time>
      </trkpt>
      <trkpt lat="45.0348" lon="5.0109">
        <ele>151</ele>
        <time>2017-02-28T17:10:54Z</time>
      </trkpt>
      <trkpt lat="45.03489" lon="5.01012">
        <ele>149</ele>
        <time>2017-02-28T17:12:54Z</time>
      </trkpt>
      <trkpt lat="45.03478" lon="5.00963">
        <ele>145</ele>
        <time>2017-02-28T17:14:54Z</time>
      </trkpt>
      <trkpt lat="45.03476" lon="5.00925">
        <ele>144</ele>
        <time>2017-02-28T17:16:54Z</time>
      </trkpt>
      <trkpt lat="45.03487" lon="5.00886">
        <ele>145</ele>
        <time>2017-02-28T17:18:54Z</time>
      </trkpt>
      <trkpt lat="45.03494" lon="5.00849">
        <ele>146</ele>
        <time>2017-02-28T17:20:54Z</time>
      </trkpt>
      <trkpt lat="45.03492" lon="5.00804">
        <ele>146</ele>
        <time>2017-02-28T17:22:54Z</time>
      </trkpt>
      <trkpt lat="45.03495" lon="5.0075">
        <ele>145</ele>
        <time>2017-02-28T17:24:54Z</time>
      </trkpt>
      <trkpt lat="45.03492" lon="5.00698">
        <ele>146</ele>
        <time>2017-02-28T17:26:54Z</time>
      </trkpt>
      <trkpt lat="45.03489" lon="5.00667">
        <ele>145</ele>
        <time>2017-02-28T17:28:54Z</time>
      </trkpt>
      <trkpt lat="45.03491" lon="5.00641">
        <ele>146</ele>
        <time>2017-02-28T17:30:54Z</time>
      </trkpt>
      <trkpt lat="45.03496" lon="5.00607">
        <ele>148</ele>
        <time>2017-02-28T17:32:54Z</time>
      </trkpt>
      <trkpt lat="45.0349" lon="5.00569">
        <ele>147</ele>
        <time>2017-02-28T17:34:54Z</time>
      </trkpt>
      <trkpt lat="45.03488" lon="5.00512">
        <ele>148</ele>
        <time>2017-02-28T17:36:54Z</time>
      </trkpt>
      <trkpt lat="45.03482" lon="5.00469">
        <ele>148</ele>
        <time>2017-02-28T17:38:54Z</time>
      </trkpt>
      <trkpt lat="45.03466" lon="5.00396">
        <ele>148</ele>
        <time>2017-02-28T17:40:54Z</time>
      </trkpt>
      <trkpt lat="45.03464" lon="5.0036">
        <ele>148</ele>
        <time>2017-02-28T17:42:54Z</time>
      </trkpt>
      <trkpt lat="45.0345" lon="5.00307">
        <ele>147</ele>
        <time>2017-02-28T17:44:54Z</time>
      </trkpt>
      <trkpt lat="45.03443" lon="5.00267">
        <ele>146</ele>
        <time>2017-02-28T17:46:54Z</time>
      </trkpt>
      <trkpt lat="45.03423" lon="5.002">
        <ele>145</ele>
        <time>2017-02-28T17:48:54Z</time>
      </trkpt>
      <trkpt lat="45.03414" lon="5.00141">
        <ele>145</ele>
        <time>2017-02-28T17:50:54Z</time>
      </trkpt>
      <trkpt lat="45.03366" lon="5.00014">
        <ele>144</ele>
        <time>2017-02-28T17:52:54Z</time>
      </trkpt>
      <trkpt lat="45.03355" lon="4.99956">
        <ele>143</ele>
        <time>2017-02-28T17:54:54Z</time>
      </trkpt>
      <trkpt lat="45.03356" lon="4.99908">
        <ele>144</ele>
        <time>2017-02-28T17:56:54Z</time>
      </trkpt>
      <trkpt lat="45.03352" lon="4.99881">
        <ele>144</ele>
        <time>2017-02-28T17:58:54Z</time>
      </trkpt>
      <trkpt lat="45.03339" lon="4.99831">
        <ele>143</ele>
        <time>2017-02-28T18:00:54Z</time>
      </trkpt>
      <trkpt lat="45.03336" lon="4.99787">
        <ele>144</ele>
        <time>2017-02-28T18:02:54Z</time>
      </trkpt>
      <trkpt lat="45.03335" lon="4.99719">
        <ele>145</ele>
        <time>2017-02-28T18:04:54Z</time>
      </trkpt>
      <trkpt lat="45.03351" lon="4.99635">
        <ele>145</ele>
        <time>2017-02-28T18:06:54Z</time>
      </trkpt>
      <trkpt lat="45.03375" lon="4.99519">
        <ele>144</ele>
        <time>2017-02-28T18:08:54Z</time>
      </trkpt>
      <trkpt lat="45.0338" lon="4.99493">
        <ele>144</ele>
        <time>2017-02-28T18:10:54Z</time>
      </trkpt>
      <trkpt lat="45.03397" lon="4.99416">
        <ele>146</ele>
        <time>2017-02-28T18:12:54Z</time>
      </trkpt>
      <trkpt lat="45.03414" lon="4.99368">
        <ele>147</ele>
        <time>2017-02-28T18:14:54Z</time>
      </trkpt>
      <trkpt lat="45.03456" lon="4.99269">
        <ele>147</ele>
        <time>2017-02-28T18:16:54Z</time>
      </trkpt>
      <trkpt lat="45.03481" lon="4.99206">
        <ele>147</ele>
        <time>2017-02-28T18:18:54Z</time>
      </trkpt>
      <trkpt lat="45.03494" lon="4.99165">
        <ele>147</ele>
        <time>2017-02-28T18:20:54Z</time>
      </trkpt>
      <trkpt lat="45.03511" lon="4.99107">
        <ele>146</ele>
        <time>2017-02-28T18:22:54Z</time>
      </trkpt>
      <trkpt lat="45.03524" lon="4.99065">
        <ele>145</ele>
        <time>2017-02-28T18:24:54Z</time>
      </trkpt>
      <trkpt lat="45.03525" lon="4.99051">
        <ele>145</ele>
        <time>2017-02-28T18:26:54Z</time>
      </trkpt>
      <trkpt lat="45.03557" lon="4.98941">
        <ele>143</ele>
        <time>2017-02-28T18:28:54Z</time>
      </trkpt>
      <trkpt lat="45.0358" lon="4.98848">
        <ele>141</ele>
        <time>2017-02-28T18:30:54Z</time>
      </trkpt>
      <trkpt lat="45.03638" lon="4.98699">
        <ele>139</ele>
        <time>2017-02-28T18:32:54Z</time>
      </trkpt>
      <trkpt lat="45.03696" lon="4.98556">
        <ele>138</ele>
        <time>2017-02-28T18:34:54Z</time>
      </trkpt>
      <trkpt lat="45.03714" lon="4.98503">
        <ele>137</ele>
        <time>2017-02-28T18:36:54Z</time>
      </trkpt>
      <trkpt lat="45.03722" lon="4.98404">
        <ele>135</ele>
        <time>2017-02-28T18:38:54Z</time>
      </trkpt>
      <trkpt lat="45.03732" lon="4.98339">
        <ele>134</ele>
        <time>2017-02-28T18:40:54Z</time>
      </trkpt>
      <trkpt lat="45.03745" lon="4.98298">
        <ele>134</ele>
        <time>2017-02-28T18:42:54Z</time>
      </trkpt>
      <trkpt lat="45.03633" lon="4.98172">
        <ele>135</ele>
        <time>2017-02-28T18:44:54Z</time>
      </trkpt>
      <trkpt lat="45.03617" lon="4.98157">
        <ele>137</ele>
        <time>2017-02-28T18:46:54Z</time>
      </trkpt>
      <trkpt lat="45.03598" lon="4.98162">
        <ele>139</ele>
        <time>2017-02-28T18:48:54Z</time>
      </trkpt>
      <trkpt lat="45.03587" lon="4.98174">
        <ele>140</ele>
        <time>2017-02-28T18:50:54Z</time>
      </trkpt>
      <trkpt lat="45.03559" lon="4.98207">
        <ele>139</ele>
        <time>2017-02-28T18:52:54Z</time>
      </trkpt>
      <trkpt lat="45.03542" lon="4.98237">
        <ele>138</ele>
        <time>2017-02-28T18:54:54Z</time>
      </trkpt>
      <trkpt lat="45.03533" lon="4.98265">
        <ele>138</ele>
        <time>2017-02-28T18:56:54Z</time>
      </trkpt>
      <trkpt lat="45.0351" lon="4.98279">
        <ele>141</ele>
        <time>2017-02-28T18:58:54Z</time>
      </trkpt>
      <trkpt lat="45.03498" lon="4.98272">
        <ele>143</ele>
        <time>2017-02-28T19:00:54Z</time>
      </trkpt>
      <trkpt lat="45.03497" lon="4.98188">
        <ele>146</ele>
        <time>2017-02-28T19:02:54Z</time>
      </trkpt>
      <trkpt lat="45.03511" lon="4.98126">
        <ele>146</ele>
        <time>2017-02-28T19:04:54Z</time>
      </trkpt>
      <trkpt lat="45.03527" lon="4.98058">
        <ele>146</ele>
        <time>2017-02-28T19:06:54Z</time>
      </trkpt>
      <trkpt lat="45.0353" lon="4.98037">
        <ele>146</ele>
        <time>2017-02-28T19:08:54Z</time>
      </trkpt>
      <trkpt lat="45.03552" lon="4.97976">
        <ele>147</ele>
        <time>2017-02-28T19:10:54Z</time>
      </trkpt>
      <trkpt lat="45.03665" lon="4.97741">
        <ele>148</ele>
        <time>2017-02-28T19:12:54Z</time>
      </trkpt>
      <trkpt lat="45.03694" lon="4.97659">
        <ele>145</ele>
        <time>2017-02-28T19:14:54Z</time>
      </trkpt>
      <trkpt lat="45.03718" lon="4.97595">
        <ele>144</ele>
        <time>2017-02-28T19:16:54Z</time>
      </trkpt>
      <trkpt lat="45.03731" lon="4.97547">
        <ele>144</ele>
        <time>2017-02-28T19:18:54Z</time>
      </trkpt>
      <trkpt lat="45.03758" lon="4.97424">
        <ele>146</ele>
        <time>2017-02-28T19:20:54Z</time>
      </trkpt>
      <trkpt lat="45.03773" lon="4.97361">
        <ele>144</ele>
        <time>2017-02-28T19:22:54Z</time>
      </trkpt>
      <trkpt lat="45.03781" lon="4.97342">
        <ele>143</ele>
        <time>2017-02-28T19:24:54Z</time>
      </trkpt>
      <trkpt lat="45.03806" lon="4.97262">
        <ele>144</ele>
        <time>2017-02-28T19:26:54Z</time>
      </trkpt>
      <trkpt lat="45.03826" lon="4.97196">
        <ele>145</ele>
        <time>2017-02-28T19:28:54Z</time>
      </trkpt>
      <trkpt lat="45.0385" lon="4.97157">
        <ele>143</ele>
        <time>2017-02-28T19:30:54Z</time>
      </trkpt>
      <trkpt lat="45.03884" lon="4.97051">
        <ele>141</ele>
        <time>2017-02-28T19:32:54Z</time>
      </trkpt>
      <trkpt lat="45.03887" lon="4.97011">
        <ele>142</ele>
        <time>2017-02-28T19:34:54Z</time>
      </trkpt>
      <trkpt lat="45.03908" lon="4.96909">
        <ele>143</ele>
        <time>2017-02-28T19:36:54Z</time>
      </trkpt>
      <trkpt lat="45.03931" lon="4.96809">
        <ele>143</ele>
        <time>2017-02-28T19:38:54Z</time>
      </trkpt>
      <trkpt lat="45.03956" lon="4.96708">
        <ele>145</ele>
        <time>2017-02-28T19:40:54Z</time>
      </trkpt>
      <trkpt lat="45.03975" lon="4.96607">
        <ele>145</ele>
        <time>2017-02-28T19:42:54Z</time>
      </trkpt>
      <trkpt lat="45.03992" lon="4.96505">
        <ele>144</ele>
        <time>2017-02-28T19:44:54Z</time>
      </trkpt>
      <trkpt lat="45.04002" lon="4.96422">
        <ele>145</ele>
        <time>2017-02-28T19:46:54Z</time>
      </trkpt>
      <trkpt lat="45.04005" lon="4.96322">
        <ele>141</ele>
        <time>2017-02-28T19:48:54Z</time>
      </trkpt>
      <trkpt lat="45.04007" lon="4.96231">
        <ele>140</ele>
        <time>2017-02-28T19:50:54Z</time>
      </trkpt>
      <trkpt lat="45.04006" lon="4.96159">
        <ele>141</ele>
        <time>2017-02-28T19:52:54Z</time>
      </trkpt>
      <trkpt lat="45.03997" lon="4.96077">
        <ele>141</ele>
        <time>2017-02-28T19:54:54Z</time>
      </trkpt>
      <trkpt lat="45.03996" lon="4.96018">
        <ele>142</ele>
        <time>2017-02-28T19:56:54Z</time>
      </trkpt>
      <trkpt lat="45.04" lon="4.9597">
        <ele>142</ele>
        <time>2017-02-28T19:58:54Z</time>
      </trkpt>
      <trkpt lat="45.04005" lon="4.95914">
        <ele>141</ele>
        <time>2017-02-28T20:00:54Z</time>
      </trkpt>
      <trkpt lat="45.04004" lon="4.95869">
        <ele>141</ele>
        <time>2017-02-28T20:02:54Z</time>
      </trkpt>
      <trkpt lat="45.04" lon="4.95836">
        <ele>141</ele>
        <time>2017-02-28T20:04:54Z</time>
      </trkpt>
      <trkpt lat="45.03972" lon="4.95789">
        <ele>142</ele>
        <time>2017-02-28T20:06:54Z</time>
      </trkpt>
      <trkpt lat="45.03947" lon="4.95739">
        <ele>142</ele>
        <time>2017-02-28T20:08:54Z</time>
      </trkpt>
      <trkpt lat="45.03924" lon="4.95711">
        <ele>142</ele>
        <time>2017-02-28T20:10:54Z</time>
      </trkpt>
      <trkpt lat="45.03871" lon="4.95655">
        <ele>143</ele>
        <time>2017-02-28T20:12:54Z</time>
      </trkpt>
      <trkpt lat="45.03841" lon="4.9563">
        <ele>143</ele>
        <time>2017-02-28T20:14:54Z</time>
      </trkpt>
      <trkpt lat="45.0371" lon="4.95573">
        <ele>143</ele>
        <time>2017-02-28T20:16:54Z</time>
      </trkpt>
      <trkpt lat="45.03577" lon="4.9552">
        <ele>143</ele>
        <time>2017-02-28T20:18:54Z</time>
      </trkpt>
      <trkpt lat="45.0352" lon="4.95503">
        <ele>143</ele>
        <time>2017-02-28T20:20:54Z</time>
      </trkpt>
      <trkpt lat="45.03442" lon="4.95493">
        <ele>141</ele>
        <time>2017-02-28T20:22:54Z</time>
      </trkpt>
      <trkpt lat="45.03342" lon="4.95474">
        <ele>141</ele>
        <time>2017-02-28T20:24:54Z</time>
      </trkpt>
      <trkpt lat="45.0331" lon="4.95465">
        <ele>141</ele>
        <time>2017-02-28T20:26:54Z</time>
      </trkpt>
      <trkpt lat="45.03181" lon="4.9534">
        <ele>138</ele>
        <time>2017-02-28T20:28:54Z</time>
      </trkpt>
      <trkpt lat="45.03071" lon="4.95234">
        <ele>139</ele>
        <time>2017-02-28T20:30:54Z</time>
      </trkpt>
      <trkpt lat="45.02998" lon="4.9517">
        <ele>139</ele>
        <time>2017-02-28T20:32:54Z</time>
      </trkpt>
      <trkpt lat="45.0287" lon="4.95116">
        <ele>140</ele>
        <time>2017-02-28T20:34:54Z</time>
      </trkpt>
      <trkpt lat="45.0277" lon="4.95066">
        <ele>139</ele>
        <time>2017-02-28T20:36:54Z</time>
      </trkpt>
      <trkpt lat="45.02747" lon="4.95049">
        <ele>139</ele>
        <time>2017-02-28T20:38:54Z</time>
      </trkpt>
      <trkpt lat="45.02722" lon="4.95021">
        <ele>138</ele>
        <time>2017-02-28T20:40:54Z</time>
      </trkpt>
      <trkpt lat="45.02695" lon="4.94979">
        <ele>137</ele>
        <time>2017-02-28T20:42:54Z</time>
      </trkpt>
      <trkpt lat="45.02677" lon="4.94961">
        <ele>137</ele>
        <time>2017-02-28T20:44:54Z</time>
      </trkpt>
      <trkpt lat="45.02625" lon="4.94957">
        <ele>137</ele>
        <time>2017-02-28T20:46:54Z</time>
      </trkpt>
      <trkpt lat="45.02586" lon="4.94956">
        <ele>137</ele>
        <time>2017-02-28T20:48:54Z</time>
      </trkpt>
      <trkpt lat="45.02551" lon="4.95094">
        <ele>145.8</ele>
      </trkpt>
      <trkpt lat="45.02363" lon="4.95875">
        <ele>154.9</ele>
      </trkpt>
      <trkpt lat="45.02293" lon="4.96059">
        <ele>158.7</ele>
      </trkpt>
      <trkpt lat="45.01487" lon="4.96256">
        <ele>172.3</ele>
      </trkpt>
      <trkpt lat="45.00762" lon="4.9628">
        <ele>165.8</ele>
      </trkpt>
      <trkpt lat="45.00065" lon="4.96348">
        <ele>170.4</ele>
      </trkpt>
      <trkpt lat="44.99465" lon="4.9598">
        <ele>176.1</ele>
      </trkpt>
      <trkpt lat="44.99136" lon="4.95555">
        <ele>191.7</ele>
      </trkpt>
      <trkpt lat="44.98584" lon="4.95125">
        <ele>193.3</ele>
      </trkpt>
      <trkpt lat="44.98107" lon="4.94593">
        <ele>191.3</ele>
      </trkpt>
      <trkpt lat="44.97454" lon="4.94123">
        <ele>189.7</ele>
      </trkpt>
      <trkpt lat="44.96681" lon="4.93524">
        <ele>159.8</ele>
      </trkpt>
      <trkpt lat="44.96591" lon="4.93539">
        <ele>157.3</ele>
      </trkpt>
      <trkpt lat="44.96531" lon="4.93677">
        <ele>156.2</ele>
      </trkpt>
      <trkpt lat="44.96407" lon="4.93452">
        <ele>153.4</ele>
      </trkpt>
      <trkpt lat="44.95747" lon="4.92681">
        <ele>140</ele>
      </trkpt>
      <trkpt lat="44.95507" lon="4.92597">
        <ele>136.5</ele>
      </trkpt>
      <trkpt lat="44.95344" lon="4.92479">
        <ele>135.4</ele>
      </trkpt>
      <trkpt lat="44.95088" lon="4.92109">
        <ele>132.7</ele>
      </trkpt>
      <trkpt lat="44.95005" lon="4.91864">
        <ele>130.3</ele>
      </trkpt>
      <trkpt lat="44.94919" lon="4.91437">
        <ele>129.1</ele>
      </trkpt>
      <trkpt lat="44.94831" lon="4.9113">
        <ele>133.2</ele>
      </trkpt>
      <trkpt lat="44.94665" lon="4.90885">
        <ele>147.8</ele>
      </trkpt>
      <trkpt lat="44.94518" lon="4.90723">
        <ele>148.9</ele>
      </trkpt>
      <trkpt lat="44.94486" lon="4.90775">
        <ele>148.2</ele>
      </trkpt>
      <trkpt lat="44.94548" lon="4.90997">
        <ele>149.1</ele>
      </trkpt>
    </trkseg>
  </trk>
</gpx>